Time,TemperatureF,DewpointF,PressureIn,WindDirection,WindDirectionDegrees,WindSpeedMPH,WindSpeedGustMPH,Humidity,HourlyPrecipIn,Conditions,Clouds,dailyrainin,SoftwareType,DateUTC
2013-10-12 06:57:00,70.3,61.7,30.00,North,0,0.0,0.0,74,0.00,,,0.00,VWS V14.01,2013-10-12 10:57:00,
2013-10-12 06:58:00,70.3,61.7,30.00,North,0,0.0,0.0,74,0.00,,,0.00,VWS V14.01,2013-10-12 10:58:00,
2013-10-12 06:59:00,70.3,61.7,30.00,North,0,0.0,0.0,74,0.00,,,0.00,VWS V14.01,2013-10-12 10:59:00,
2013-10-12 07:00:00,70.3,61.7,30.00,North,0,0.0,0.0,74,0.00,,,0.00,VWS V14.01,2013-10-12 11:00:00,
2013-10-12 07:03:00,70.3,61.7,30.00,North,0,0.0,0.0,74,0.00,,,0.00,VWS V14.01,2013-10-12 11:03:00,
2013-10-12 07:04:00,70.3,61.7,30.00,North,0,0.0,0.0,74,0.00,,,0.00,VWS V14.01,2013-10-12 11:04:00,
2013-10-12 07:06:00,70.3,61.7,30.00,North,0,0.0,0.0,74,0.00,,,0.00,VWS V14.01,2013-10-12 11:06:00,
2013-10-12 07:09:00,70.3,61.7,30.00,North,0,0.0,0.0,74,0.00,,,0.00,VWS V14.01,2013-10-12 11:09:00,
2013-10-12 07:12:00,70.3,61.7,30.00,North,0,0.0,0.0,74,0.00,,,0.00,VWS V14.01,2013-10-12 11:12:00,
2013-10-12 07:13:00,70.3,61.7,30.03,North,0,0.0,0.0,74,0.00,,,0.00,VWS V14.01,2013-10-12 11:13:00,
2013-10-12 07:14:00,70.9,63.7,30.03,North,0,0.0,0.0,78,0.00,,,0.00,VWS V14.01,2013-10-12 11:14:00,
2013-10-12 07:17:00,70.9,63.7,30.03,North,0,0.0,0.0,78,0.00,,,0.00,VWS V14.01,2013-10-12 11:17:00,
2013-10-12 07:18:00,70.9,63.7,30.03,North,0,0.0,0.0,78,0.00,,,0.00,VWS V14.01,2013-10-12 11:18:00,
2013-10-12 07:19:00,70.9,63.7,30.03,North,0,0.0,0.0,78,0.00,,,0.00,VWS V14.01,2013-10-12 11:19:00,
2013-10-12 07:22:00,70.9,63.7,30.03,North,0,0.0,0.0,78,0.00,,,0.00,VWS V14.01,2013-10-12 11:22:00,
2013-10-12 07:23:00,71.1,64.2,30.03,North,0,0.0,0.0,79,0.00,,,0.00,VWS V14.01,2013-10-12 11:23:00,
2013-10-12 07:24:00,71.1,64.2,30.03,North,0,0.0,0.0,79,0.00,,,0.00,VWS V14.01,2013-10-12 11:24:00,
2013-10-12 07:27:00,0.0,0.0,30.03,North,0,0.0,0.0,0,0.00,,,0.00,VWS V14.01,2013-10-12 11:27:00,
2013-10-12 07:29:00,71.2,64.4,30.03,North,0,0.0,0.0,79,0.00,,,0.00,VWS V14.01,2013-10-12 11:29:00,
2013-10-12 07:30:00,71.2,64.4,30.03,North,0,0.0,0.0,79,0.00,,,0.00,VWS V14.01,2013-10-12 11:30:00,
2013-10-12 07:31:00,71.2,64.4,30.03,North,0,0.0,0.0,79,0.00,,,0.00,VWS V14.01,2013-10-12 11:31:00,
2013-10-12 07:32:00,71.2,64.4,30.03,North,0,0.0,0.0,79,0.00,,,0.00,VWS V14.01,2013-10-12 11:32:00,
2013-10-12 07:33:00,71.2,64.4,30.03,North,0,0.0,0.0,79,0.00,,,0.00,VWS V14.01,2013-10-12 11:33:00,
2013-10-12 07:36:00,71.2,64.4,30.03,North,0,0.0,0.0,79,0.00,,,0.00,VWS V14.01,2013-10-12 11:36:00,
2013-10-12 07:37:00,71.2,64.4,30.03,North,0,0.0,0.0,79,0.00,,,0.00,VWS V14.01,2013-10-12 11:37:00,
2013-10-12 07:39:00,71.2,64.4,30.03,North,0,0.0,0.0,79,0.00,,,0.00,VWS V14.01,2013-10-12 11:39:00,
2013-10-12 07:42:00,71.4,64.6,30.03,North,0,0.0,0.0,79,0.00,,,0.00,VWS V14.01,2013-10-12 11:42:00,
2013-10-12 07:43:00,71.4,64.9,30.03,North,0,0.0,0.0,80,0.00,,,0.00,VWS V14.01,2013-10-12 11:43:00,
2013-10-12 07:45:00,71.4,64.9,30.03,North,0,0.0,0.0,80,0.00,,,0.00,VWS V14.01,2013-10-12 11:45:00,
2013-10-12 07:48:00,71.4,64.9,30.03,North,0,0.0,0.0,80,0.00,,,0.00,VWS V14.01,2013-10-12 11:48:00,
2013-10-12 07:50:00,71.4,64.9,30.03,North,0,0.0,0.0,80,0.00,,,0.00,VWS V14.01,2013-10-12 11:50:00,
2013-10-12 07:51:00,71.4,64.9,30.03,North,0,0.0,0.0,80,0.00,,,0.00,VWS V14.01,2013-10-12 11:51:00,
2013-10-12 07:52:00,71.4,64.9,30.03,North,0,0.0,0.0,80,0.00,,,0.00,VWS V14.01,2013-10-12 11:52:00,
2013-10-12 07:55:00,71.4,64.9,30.03,North,0,0.0,0.0,80,0.00,,,0.00,VWS V14.01,2013-10-12 11:55:00,
2013-10-12 07:58:00,71.4,64.9,30.03,North,0,0.0,0.0,80,0.00,,,0.00,VWS V14.01,2013-10-12 11:58:00,
2013-10-12 07:59:00,71.6,64.8,30.03,North,0,0.0,0.0,79,0.00,,,0.00,VWS V14.01,2013-10-12 11:59:00,
2013-10-12 08:00:00,71.6,64.8,30.03,North,0,0.0,0.0,79,0.00,,,0.00,VWS V14.01,2013-10-12 12:00:00,
2013-10-12 08:03:00,71.6,65.1,30.03,North,0,0.0,0.0,80,0.00,,,0.00,VWS V14.01,2013-10-12 12:03:00,
2013-10-12 08:04:00,71.6,65.1,30.03,North,0,0.0,0.0,80,0.00,,,0.00,VWS V14.01,2013-10-12 12:04:00,
2013-10-12 08:06:00,71.6,65.1,30.03,North,0,0.0,0.0,80,0.00,,,0.00,VWS V14.01,2013-10-12 12:06:00,
2013-10-12 08:07:00,71.6,65.1,30.03,North,0,0.0,0.0,80,0.00,,,0.00,VWS V14.01,2013-10-12 12:07:00,
2013-10-12 08:09:00,71.6,65.1,30.03,North,0,0.0,0.0,80,0.00,,,0.00,VWS V14.01,2013-10-12 12:09:00,
2013-10-12 08:10:00,71.8,65.3,30.03,North,0,0.0,0.0,80,0.00,,,0.00,VWS V14.01,2013-10-12 12:10:00,
2013-10-12 08:13:00,71.8,65.3,30.03,North,0,0.0,0.0,80,0.00,,,0.00,VWS V14.01,2013-10-12 12:13:00,
2013-10-12 08:14:00,71.8,65.3,30.03,North,0,0.0,0.0,80,0.00,,,0.00,VWS V14.01,2013-10-12 12:14:00,
2013-10-12 08:15:00,71.8,65.3,30.03,North,0,0.0,0.0,80,0.00,,,0.00,VWS V14.01,2013-10-12 12:15:00,
2013-10-12 08:16:00,71.8,65.3,30.03,North,0,0.0,0.0,80,0.00,,,0.00,VWS V14.01,2013-10-12 12:16:00,
2013-10-12 08:17:00,71.8,65.3,30.03,North,0,0.0,0.0,80,0.00,,,0.00,VWS V14.01,2013-10-12 12:17:00,
2013-10-12 08:21:00,72.0,65.5,30.03,North,0,0.0,0.0,80,0.00,,,0.00,VWS V14.01,2013-10-12 12:21:00,
2013-10-12 08:23:00,72.0,65.5,30.03,North,0,0.0,0.0,80,0.00,,,0.00,VWS V14.01,2013-10-12 12:23:00,
2013-10-12 08:24:00,72.0,65.5,30.03,North,0,0.0,0.0,80,0.00,,,0.00,VWS V14.01,2013-10-12 12:24:00,
2013-10-12 08:25:00,72.0,65.5,30.03,North,0,0.0,0.0,80,0.00,,,0.00,VWS V14.01,2013-10-12 12:25:00,
2013-10-12 08:26:00,72.0,65.5,30.03,North,0,0.0,0.0,80,0.00,,,0.00,VWS V14.01,2013-10-12 12:26:00,
2013-10-12 08:33:00,72.1,65.3,30.03,North,0,0.0,0.0,79,0.00,,,0.00,VWS V14.01,2013-10-12 12:33:00,
2013-10-12 08:35:00,72.1,65.3,30.03,North,0,0.0,0.0,79,0.00,,,0.00,VWS V14.01,2013-10-12 12:35:00,
2013-10-12 08:36:00,72.1,65.3,30.03,North,0,0.0,0.0,79,0.00,,,0.00,VWS V14.01,2013-10-12 12:36:00,
2013-10-12 08:38:00,72.1,65.3,30.03,North,0,0.0,0.0,79,0.00,,,0.00,VWS V14.01,2013-10-12 12:38:00,
2013-10-12 08:42:00,72.1,65.3,30.03,North,0,0.0,0.0,79,0.00,,,0.00,VWS V14.01,2013-10-12 12:42:00,
2013-10-12 08:43:00,72.1,65.3,30.03,North,0,0.0,0.0,79,0.00,,,0.00,VWS V14.01,2013-10-12 12:43:00,
2013-10-12 08:44:00,72.1,65.3,30.03,North,0,0.0,0.0,79,0.00,,,0.00,VWS V14.01,2013-10-12 12:44:00,
2013-10-12 08:45:00,72.1,65.3,30.03,North,0,0.0,0.0,79,0.00,,,0.00,VWS V14.01,2013-10-12 12:45:00,
2013-10-12 08:47:00,72.1,65.3,30.03,North,0,0.0,0.0,79,0.00,,,0.00,VWS V14.01,2013-10-12 12:47:00,
2013-10-12 08:48:00,72.1,65.3,30.03,North,0,0.0,0.0,79,0.00,,,0.00,VWS V14.01,2013-10-12 12:48:00,
2013-10-12 08:49:00,72.5,65.6,30.03,North,0,0.0,0.0,79,0.00,,,0.00,VWS V14.01,2013-10-12 12:49:00,
2013-10-12 08:52:00,72.5,65.6,30.03,North,0,0.0,0.0,79,0.00,,,0.00,VWS V14.01,2013-10-12 12:52:00,
2013-10-12 08:54:00,72.7,65.4,30.03,North,0,0.0,0.0,78,0.00,,,0.00,VWS V14.01,2013-10-12 12:54:00,
2013-10-12 08:56:00,72.7,65.4,30.03,North,0,0.0,0.0,78,0.00,,,0.00,VWS V14.01,2013-10-12 12:56:00,
2013-10-12 08:57:00,72.9,65.6,30.03,North,0,0.0,0.0,78,0.00,,,0.00,VWS V14.01,2013-10-12 12:57:00,
2013-10-12 08:58:00,72.9,65.6,30.03,North,0,0.0,0.0,78,0.00,,,0.00,VWS V14.01,2013-10-12 12:58:00,
2013-10-12 09:00:00,72.9,65.6,30.06,North,0,0.0,0.0,78,0.00,,,0.00,VWS V14.01,2013-10-12 13:00:00,
2013-10-12 09:01:00,72.9,65.6,30.06,North,0,0.0,0.0,78,0.00,,,0.00,VWS V14.01,2013-10-12 13:01:00,
2013-10-12 09:04:00,73.0,65.4,30.06,North,0,0.0,0.0,77,0.00,,,0.00,VWS V14.01,2013-10-12 13:04:00,
2013-10-12 09:06:00,73.2,65.6,30.06,North,0,0.0,0.0,77,0.00,,,0.00,VWS V14.01,2013-10-12 13:06:00,
2013-10-12 09:07:00,73.2,65.6,30.06,North,0,0.0,0.0,77,0.00,,,0.00,VWS V14.01,2013-10-12 13:07:00,
2013-10-12 09:09:00,73.2,65.2,30.06,North,0,0.0,0.0,76,0.00,,,0.00,VWS V14.01,2013-10-12 13:09:00,
2013-10-12 09:11:00,73.4,65.4,30.06,North,0,0.0,0.0,76,0.00,,,0.00,VWS V14.01,2013-10-12 13:11:00,
2013-10-12 09:12:00,73.4,65.0,30.06,North,0,0.0,0.0,75,0.00,,,0.00,VWS V14.01,2013-10-12 13:12:00,
2013-10-12 09:16:00,73.6,65.2,30.06,North,0,0.0,0.0,75,0.00,,,0.00,VWS V14.01,2013-10-12 13:16:00,
2013-10-12 09:17:00,73.8,65.3,30.06,North,0,0.0,0.0,75,0.00,,,0.00,VWS V14.01,2013-10-12 13:17:00,
2013-10-12 09:18:00,73.8,65.3,30.06,North,0,0.0,0.0,75,0.00,,,0.00,VWS V14.01,2013-10-12 13:18:00,
2013-10-12 09:22:00,73.9,65.1,30.06,North,0,0.0,0.0,74,0.00,,,0.00,VWS V14.01,2013-10-12 13:22:00,
2013-10-12 09:23:00,73.9,65.1,30.06,North,0,0.0,0.0,74,0.00,,,0.00,VWS V14.01,2013-10-12 13:23:00,
2013-10-12 09:24:00,73.9,65.1,30.06,North,0,0.0,0.0,74,0.00,,,0.00,VWS V14.01,2013-10-12 13:24:00,
2013-10-12 09:29:00,74.3,65.1,30.06,North,0,0.0,0.0,73,0.00,,,0.00,VWS V14.01,2013-10-12 13:29:00,
2013-10-12 09:30:00,74.3,65.1,30.06,North,0,0.0,0.0,73,0.00,,,0.00,VWS V14.01,2013-10-12 13:30:00,
2013-10-12 09:31:00,74.7,65.0,30.06,North,0,0.0,0.0,72,0.00,,,0.00,VWS V14.01,2013-10-12 13:31:00,
2013-10-12 09:32:00,74.7,65.0,30.06,North,0,0.0,0.0,72,0.00,,,0.00,VWS V14.01,2013-10-12 13:32:00,
2013-10-12 09:34:00,74.7,65.0,30.06,North,0,0.0,0.0,72,0.00,,,0.00,VWS V14.01,2013-10-12 13:34:00,
2013-10-12 09:37:00,74.8,64.8,30.06,North,0,0.0,0.0,71,0.00,,,0.00,VWS V14.01,2013-10-12 13:37:00,
2013-10-12 09:38:00,75.0,64.6,30.06,North,0,0.0,0.0,70,0.00,,,0.00,VWS V14.01,2013-10-12 13:38:00,
2013-10-12 09:41:00,75.2,64.3,30.06,North,0,0.0,0.0,69,0.00,,,0.00,VWS V14.01,2013-10-12 13:41:00,
2013-10-12 09:44:00,75.4,64.1,30.06,North,0,0.0,0.0,68,0.00,,,0.00,VWS V14.01,2013-10-12 13:44:00,
2013-10-12 09:45:00,75.4,64.1,30.06,North,0,0.0,0.0,68,0.00,,,0.00,VWS V14.01,2013-10-12 13:45:00,
2013-10-12 09:47:00,75.6,64.3,30.06,North,0,0.0,0.0,68,0.00,,,0.00,VWS V14.01,2013-10-12 13:47:00,
2013-10-12 09:48:00,75.7,64.4,30.06,North,0,0.0,0.0,68,0.00,,,0.00,VWS V14.01,2013-10-12 13:48:00,
2013-10-12 09:51:00,75.7,64.4,30.06,North,0,0.0,0.0,68,0.00,,,0.00,VWS V14.01,2013-10-12 13:51:00,
2013-10-12 09:52:00,75.9,64.2,30.06,North,0,0.0,0.0,67,0.00,,,0.00,VWS V14.01,2013-10-12 13:52:00,
2013-10-12 09:54:00,75.9,64.2,30.06,North,0,0.0,0.0,67,0.00,,,0.00,VWS V14.01,2013-10-12 13:54:00,
2013-10-12 09:55:00,75.9,64.2,30.06,North,0,0.0,0.0,67,0.00,,,0.00,VWS V14.01,2013-10-12 13:55:00,
2013-10-12 09:56:00,75.9,64.2,30.06,North,0,0.0,0.0,67,0.00,,,0.00,VWS V14.01,2013-10-12 13:56:00,
2013-10-12 09:58:00,76.1,63.9,30.06,North,0,0.0,0.0,66,0.00,,,0.00,VWS V14.01,2013-10-12 13:58:00,
2013-10-12 10:02:00,76.5,63.8,30.06,North,0,0.0,0.0,65,0.00,,,0.00,VWS V14.01,2013-10-12 14:02:00,
2013-10-12 10:03:00,76.5,63.8,30.06,North,0,0.0,0.0,65,0.00,,,0.00,VWS V14.01,2013-10-12 14:03:00,
2013-10-12 10:04:00,76.5,63.8,30.06,North,0,0.0,0.0,65,0.00,,,0.00,VWS V14.01,2013-10-12 14:04:00,
2013-10-12 10:05:00,76.6,63.6,30.06,North,0,0.0,0.0,64,0.00,,,0.00,VWS V14.01,2013-10-12 14:05:00,
2013-10-12 10:07:00,76.6,63.6,30.06,North,0,0.0,0.0,64,0.00,,,0.00,VWS V14.01,2013-10-12 14:07:00,
2013-10-12 10:09:00,77.0,63.5,30.06,North,0,0.0,0.0,63,0.00,,,0.00,VWS V14.01,2013-10-12 14:09:00,
2013-10-12 10:11:00,77.2,63.2,30.06,North,0,0.0,0.0,62,0.00,,,0.00,VWS V14.01,2013-10-12 14:11:00,
2013-10-12 10:14:00,77.2,63.2,30.06,North,0,0.0,0.0,62,0.00,,,0.00,VWS V14.01,2013-10-12 14:14:00,
2013-10-12 10:15:00,77.2,63.2,30.06,North,0,0.0,0.0,62,0.00,,,0.00,VWS V14.01,2013-10-12 14:15:00,
2013-10-12 10:16:00,77.2,63.2,30.06,North,0,0.0,0.0,62,0.00,,,0.00,VWS V14.01,2013-10-12 14:16:00,
2013-10-12 10:18:00,77.2,63.2,30.06,North,0,0.0,0.0,62,0.00,,,0.00,VWS V14.01,2013-10-12 14:18:00,
2013-10-12 10:22:00,77.9,62.9,30.06,North,0,0.0,0.0,60,0.00,,,0.00,VWS V14.01,2013-10-12 14:22:00,
2013-10-12 10:23:00,77.9,62.9,30.06,North,0,0.0,0.0,60,0.00,,,0.00,VWS V14.01,2013-10-12 14:23:00,
2013-10-12 10:24:00,77.9,62.9,30.06,North,0,0.0,0.0,60,0.00,,,0.00,VWS V14.01,2013-10-12 14:24:00,
2013-10-12 10:28:00,78.3,62.3,30.06,North,0,0.0,0.0,58,0.00,,,0.00,VWS V14.01,2013-10-12 14:28:00,
2013-10-12 10:30:00,78.3,62.3,30.06,North,0,0.0,0.0,58,0.00,,,0.00,VWS V14.01,2013-10-12 14:30:00,
2013-10-12 10:31:00,78.6,62.1,30.06,North,0,0.0,0.0,57,0.00,,,0.00,VWS V14.01,2013-10-12 14:31:00,
2013-10-12 10:35:00,78.8,61.8,30.06,North,0,0.0,0.0,56,0.00,,,0.00,VWS V14.01,2013-10-12 14:35:00,
2013-10-12 10:37:00,78.8,61.8,30.06,North,0,0.0,0.0,56,0.00,,,0.00,VWS V14.01,2013-10-12 14:37:00,
2013-10-12 10:38:00,79.2,61.6,30.06,North,0,0.0,0.0,55,0.00,,,0.00,VWS V14.01,2013-10-12 14:38:00,
2013-10-12 10:39:00,79.2,61.6,30.06,North,0,0.0,0.0,55,0.00,,,0.00,VWS V14.01,2013-10-12 14:39:00,
2013-10-12 10:42:00,79.2,61.6,30.06,North,0,0.0,0.0,55,0.00,,,0.00,VWS V14.01,2013-10-12 14:42:00,
2013-10-12 10:45:00,79.2,61.6,30.06,North,0,0.0,0.0,55,0.00,,,0.00,VWS V14.01,2013-10-12 14:45:00,
2013-10-12 10:47:00,79.2,61.6,30.06,North,0,0.0,0.0,55,0.00,,,0.00,VWS V14.01,2013-10-12 14:47:00,
2013-10-12 10:48:00,79.2,61.6,30.06,North,0,0.0,0.0,55,0.00,,,0.00,VWS V14.01,2013-10-12 14:48:00,
2013-10-12 10:51:00,79.2,61.6,30.06,North,0,0.0,0.0,55,0.00,,,0.00,VWS V14.01,2013-10-12 14:51:00,
2013-10-12 10:52:00,79.2,61.6,30.06,North,0,0.0,0.0,55,0.00,,,0.00,VWS V14.01,2013-10-12 14:52:00,
2013-10-12 10:53:00,80.2,60.5,30.06,North,0,0.0,0.0,51,0.00,,,0.00,VWS V14.01,2013-10-12 14:53:00,
2013-10-12 10:54:00,80.2,60.5,30.06,North,0,0.0,0.0,51,0.00,,,0.00,VWS V14.01,2013-10-12 14:54:00,
2013-10-12 10:55:00,80.2,60.5,30.06,North,0,0.0,0.0,51,0.00,,,0.00,VWS V14.01,2013-10-12 14:55:00,
2013-10-12 10:56:00,80.2,60.5,30.06,North,0,0.0,0.0,51,0.00,,,0.00,VWS V14.01,2013-10-12 14:56:00,
2013-10-12 11:00:00,80.2,60.5,30.06,North,0,0.0,0.0,51,0.00,,,0.00,VWS V14.01,2013-10-12 15:00:00,
2013-10-12 11:01:00,80.2,60.5,30.06,North,0,0.0,0.0,51,0.00,,,0.00,VWS V14.01,2013-10-12 15:01:00,
2013-10-12 11:02:00,80.2,60.5,30.06,North,0,0.0,0.0,51,0.00,,,0.00,VWS V14.01,2013-10-12 15:02:00,
2013-10-12 11:07:00,80.6,57.3,30.06,North,0,0.0,0.0,45,0.00,,,0.00,VWS V14.01,2013-10-12 15:07:00,
2013-10-12 11:08:00,80.6,57.3,30.06,North,0,0.0,0.0,45,0.00,,,0.00,VWS V14.01,2013-10-12 15:08:00,
2013-10-12 11:09:00,80.6,57.3,30.06,North,0,0.0,0.0,45,0.00,,,0.00,VWS V14.01,2013-10-12 15:09:00,
2013-10-12 11:10:00,80.6,57.3,30.06,North,0,0.0,0.0,45,0.00,,,0.00,VWS V14.01,2013-10-12 15:10:00,
2013-10-12 11:11:00,80.8,57.5,30.06,North,0,0.0,0.0,45,0.00,,,0.00,VWS V14.01,2013-10-12 15:11:00,
2013-10-12 11:13:00,80.8,57.5,30.06,North,0,0.0,0.0,45,0.00,,,0.00,VWS V14.01,2013-10-12 15:13:00,
2013-10-12 11:16:00,81.1,57.2,30.06,North,0,0.0,0.0,44,0.00,,,0.00,VWS V14.01,2013-10-12 15:16:00,
2013-10-12 11:18:00,81.1,57.2,30.06,North,0,0.0,0.0,44,0.00,,,0.00,VWS V14.01,2013-10-12 15:18:00,
2013-10-12 11:19:00,81.1,57.2,30.06,North,0,0.0,0.0,44,0.00,,,0.00,VWS V14.01,2013-10-12 15:19:00,
2013-10-12 11:20:00,81.1,57.2,30.06,North,0,0.0,0.0,44,0.00,,,0.00,VWS V14.01,2013-10-12 15:20:00,
2013-10-12 11:21:00,81.1,57.2,30.06,North,0,0.0,0.0,44,0.00,,,0.00,VWS V14.01,2013-10-12 15:21:00,
2013-10-12 11:24:00,81.7,56.4,30.06,North,0,0.0,0.0,42,0.00,,,0.00,VWS V14.01,2013-10-12 15:24:00,
2013-10-12 11:26:00,81.9,56.5,30.06,North,0,0.0,0.0,42,0.00,,,0.00,VWS V14.01,2013-10-12 15:26:00,
2013-10-12 11:27:00,81.9,56.5,30.06,North,0,0.0,0.0,42,0.00,,,0.00,VWS V14.01,2013-10-12 15:27:00,
2013-10-12 11:29:00,81.9,56.5,30.06,North,0,0.0,0.0,42,0.00,,,0.00,VWS V14.01,2013-10-12 15:29:00,
2013-10-12 11:31:00,81.9,56.5,30.06,North,0,0.0,0.0,42,0.00,,,0.00,VWS V14.01,2013-10-12 15:31:00,
2013-10-12 11:32:00,81.9,56.5,30.06,North,0,0.0,0.0,42,0.00,,,0.00,VWS V14.01,2013-10-12 15:32:00,
2013-10-12 11:33:00,81.9,56.5,30.06,North,0,0.0,0.0,42,0.00,,,0.00,VWS V14.01,2013-10-12 15:33:00,
2013-10-12 11:34:00,81.9,56.5,30.06,North,0,0.0,0.0,42,0.00,,,0.00,VWS V14.01,2013-10-12 15:34:00,
2013-10-12 11:37:00,81.9,56.5,30.06,North,0,0.0,0.0,42,0.00,,,0.00,VWS V14.01,2013-10-12 15:37:00,
2013-10-12 11:38:00,81.9,56.5,30.06,North,0,0.0,0.0,42,0.00,,,0.00,VWS V14.01,2013-10-12 15:38:00,
2013-10-12 11:39:00,81.9,56.5,30.06,North,0,0.0,0.0,42,0.00,,,0.00,VWS V14.01,2013-10-12 15:39:00,
2013-10-12 11:41:00,81.9,56.5,30.06,North,0,0.0,0.0,42,0.00,,,0.00,VWS V14.01,2013-10-12 15:41:00,
2013-10-12 11:42:00,81.9,56.5,30.06,North,0,0.0,0.0,42,0.00,,,0.00,VWS V14.01,2013-10-12 15:42:00,
2013-10-12 11:44:00,81.9,56.5,30.06,North,0,0.0,0.0,42,0.00,,,0.00,VWS V14.01,2013-10-12 15:44:00,
2013-10-12 11:46:00,83.1,54.9,30.06,North,0,0.0,0.0,38,0.00,,,0.00,VWS V14.01,2013-10-12 15:46:00,
2013-10-12 11:50:00,83.1,54.9,30.06,North,0,0.0,0.0,38,0.00,,,0.00,VWS V14.01,2013-10-12 15:50:00,
2013-10-12 11:51:00,83.1,54.9,30.06,North,0,0.0,0.0,38,0.00,,,0.00,VWS V14.01,2013-10-12 15:51:00,
2013-10-12 11:52:00,83.1,54.9,30.06,North,0,0.0,0.0,38,0.00,,,0.00,VWS V14.01,2013-10-12 15:52:00,
2013-10-12 11:53:00,83.1,54.9,30.06,North,0,0.0,0.0,38,0.00,,,0.00,VWS V14.01,2013-10-12 15:53:00,
2013-10-12 11:54:00,83.1,54.9,30.06,North,0,0.0,0.0,38,0.00,,,0.00,VWS V14.01,2013-10-12 15:54:00,
2013-10-12 11:58:00,84.4,53.0,30.06,North,0,0.0,0.0,34,0.00,,,0.00,VWS V14.01,2013-10-12 15:58:00,
2013-10-12 12:00:00,84.4,53.0,30.06,North,0,0.0,0.0,34,0.00,,,0.00,VWS V14.01,2013-10-12 16:00:00,
2013-10-12 12:02:00,84.4,53.0,30.06,North,0,0.0,0.0,34,0.00,,,0.00,VWS V14.01,2013-10-12 16:02:00,
2013-10-12 12:03:00,84.4,53.0,30.06,North,0,0.0,0.0,34,0.00,,,0.00,VWS V14.01,2013-10-12 16:03:00,
2013-10-12 12:06:00,84.4,53.0,30.06,North,0,0.0,0.0,34,0.00,,,0.00,VWS V14.01,2013-10-12 16:06:00,
2013-10-12 12:08:00,84.4,53.0,30.06,North,0,0.0,0.0,34,0.00,,,0.00,VWS V14.01,2013-10-12 16:08:00,
2013-10-12 12:09:00,84.4,53.0,30.06,North,0,0.0,0.0,34,0.00,,,0.00,VWS V14.01,2013-10-12 16:09:00,
2013-10-12 12:13:00,84.4,53.0,30.06,North,0,0.0,0.0,34,0.00,,,0.00,VWS V14.01,2013-10-12 16:13:00,
2013-10-12 12:15:00,84.4,53.0,30.06,North,0,0.0,0.0,34,0.00,,,0.00,VWS V14.01,2013-10-12 16:15:00,
2013-10-12 12:16:00,84.4,53.0,30.06,North,0,0.0,0.0,34,0.00,,,0.00,VWS V14.01,2013-10-12 16:16:00,
2013-10-12 12:17:00,84.4,53.0,30.06,North,0,0.0,0.0,34,0.00,,,0.00,VWS V14.01,2013-10-12 16:17:00,
2013-10-12 12:22:00,84.4,53.0,30.06,North,0,0.0,0.0,34,0.00,,,0.00,VWS V14.01,2013-10-12 16:22:00,
2013-10-12 12:23:00,84.4,53.0,30.06,North,0,0.0,0.0,34,0.00,,,0.00,VWS V14.01,2013-10-12 16:23:00,
2013-10-12 12:24:00,84.4,53.0,30.06,North,0,0.0,0.0,34,0.00,,,0.00,VWS V14.01,2013-10-12 16:24:00,
2013-10-12 12:25:00,84.4,53.0,30.06,North,0,0.0,0.0,34,0.00,,,0.00,VWS V14.01,2013-10-12 16:25:00,
2013-10-12 12:28:00,84.9,52.6,30.06,North,0,0.0,0.0,33,0.00,,,0.00,VWS V14.01,2013-10-12 16:28:00,
2013-10-12 12:31:00,84.9,52.6,30.06,North,0,0.0,0.0,33,0.00,,,0.00,VWS V14.01,2013-10-12 16:31:00,
2013-10-12 12:34:00,84.9,52.6,30.06,North,0,0.0,0.0,33,0.00,,,0.00,VWS V14.01,2013-10-12 16:34:00,
2013-10-12 12:35:00,84.9,52.6,30.06,North,0,0.0,0.0,33,0.00,,,0.00,VWS V14.01,2013-10-12 16:35:00,
2013-10-12 12:36:00,84.9,52.6,30.06,North,0,0.0,0.0,33,0.00,,,0.00,VWS V14.01,2013-10-12 16:36:00,
2013-10-12 12:38:00,84.9,52.6,30.06,North,0,0.0,0.0,33,0.00,,,0.00,VWS V14.01,2013-10-12 16:38:00,
2013-10-12 12:41:00,84.9,53.5,30.06,North,0,0.0,0.0,34,0.00,,,0.00,VWS V14.01,2013-10-12 16:41:00,
2013-10-12 12:42:00,84.9,53.5,30.06,North,0,0.0,0.0,34,0.00,,FEW040,0.00,VWS V14.01,2013-10-12 16:42:00,
2013-10-12 12:43:00,85.1,52.8,30.06,North,0,0.0,0.0,33,0.00,,FEW040,0.00,VWS V14.01,2013-10-12 16:43:00,
2013-10-12 12:44:00,85.1,52.8,30.03,North,0,0.0,0.0,33,0.00,,FEW040,0.00,VWS V14.01,2013-10-12 16:44:00,
2013-10-12 12:48:00,85.1,52.8,30.03,North,0,0.0,0.0,33,0.00,,FEW040,0.00,VWS V14.01,2013-10-12 16:48:00,
2013-10-12 12:49:00,85.1,52.8,30.03,North,0,0.0,0.0,33,0.00,,FEW040,0.00,VWS V14.01,2013-10-12 16:49:00,
2013-10-12 12:51:00,85.1,52.8,30.03,North,0,0.0,0.0,33,0.00,,FEW040,0.00,VWS V14.01,2013-10-12 16:51:00,
2013-10-12 12:53:00,85.1,52.8,30.03,North,0,0.0,0.0,33,0.00,,FEW040,0.00,VWS V14.01,2013-10-12 16:53:00,
2013-10-12 12:54:00,85.1,52.8,30.03,North,0,0.0,0.0,33,0.00,,FEW040,0.00,VWS V14.01,2013-10-12 16:54:00,
2013-10-12 12:56:00,85.1,52.8,30.03,North,0,0.0,0.0,33,0.00,,FEW040,0.00,VWS V14.01,2013-10-12 16:56:00,
2013-10-12 12:57:00,85.1,52.8,30.03,North,0,0.0,0.0,33,0.00,,FEW040,0.00,VWS V14.01,2013-10-12 16:57:00,
2013-10-12 12:59:00,85.1,52.8,30.03,North,0,0.0,0.0,33,0.00,,FEW040,0.00,VWS V14.01,2013-10-12 16:59:00,
2013-10-12 13:01:00,85.1,52.8,30.03,North,0,0.0,0.0,33,0.00,,FEW040,0.00,VWS V14.01,2013-10-12 17:01:00,
2013-10-12 13:04:00,85.1,52.8,30.03,North,0,0.0,0.0,33,0.00,,FEW045,0.00,VWS V14.01,2013-10-12 17:04:00,
2013-10-12 13:06:00,85.1,52.8,30.03,North,0,0.0,0.0,33,0.00,,FEW045,0.00,VWS V14.01,2013-10-12 17:06:00,
2013-10-12 13:07:00,85.1,52.8,30.03,North,0,0.0,0.0,33,0.00,,FEW045,0.00,VWS V14.01,2013-10-12 17:07:00,
2013-10-12 13:09:00,85.1,52.8,30.03,North,0,0.0,0.0,33,0.00,,FEW045,0.00,VWS V14.01,2013-10-12 17:09:00,
2013-10-12 13:10:00,85.1,52.8,30.03,North,0,0.0,0.0,33,0.00,,FEW045,0.00,VWS V14.01,2013-10-12 17:10:00,
2013-10-12 13:11:00,85.1,52.8,30.03,North,0,0.0,0.0,33,0.00,,FEW045,0.00,VWS V14.01,2013-10-12 17:11:00,
2013-10-12 13:13:00,85.1,52.8,30.03,North,0,0.0,0.0,33,0.00,,FEW045,0.00,VWS V14.01,2013-10-12 17:13:00,
2013-10-12 13:14:00,85.1,52.8,30.03,North,0,0.0,0.0,33,0.00,,FEW045,0.00,VWS V14.01,2013-10-12 17:14:00,
2013-10-12 13:15:00,85.1,52.8,30.03,North,0,0.0,0.0,33,0.00,,FEW045,0.00,VWS V14.01,2013-10-12 17:15:00,
2013-10-12 13:17:00,85.1,52.8,30.03,North,0,0.0,0.0,33,0.00,,FEW045,0.00,VWS V14.01,2013-10-12 17:17:00,
2013-10-12 13:18:00,85.1,52.8,30.03,North,0,0.0,0.0,33,0.00,,FEW045,0.00,VWS V14.01,2013-10-12 17:18:00,
2013-10-12 13:19:00,85.1,52.8,30.03,North,0,0.0,0.0,33,0.00,,FEW045,0.00,VWS V14.01,2013-10-12 17:19:00,
2013-10-12 13:23:00,86.7,52.5,30.03,North,0,0.0,0.0,31,0.00,,FEW045,0.00,VWS V14.01,2013-10-12 17:23:00,
2013-10-12 13:24:00,86.7,52.5,30.03,North,0,0.0,0.0,31,0.00,,FEW045,0.00,VWS V14.01,2013-10-12 17:24:00,
2013-10-12 13:27:00,86.7,52.5,30.03,North,0,0.0,0.0,31,0.00,,FEW045,0.00,VWS V14.01,2013-10-12 17:27:00,
2013-10-12 13:28:00,86.7,52.5,30.03,North,0,0.0,0.0,31,0.00,,FEW045,0.00,VWS V14.01,2013-10-12 17:28:00,
2013-10-12 13:30:00,86.7,52.5,30.03,North,0,0.0,0.0,31,0.00,,FEW045,0.00,VWS V14.01,2013-10-12 17:30:00,
2013-10-12 13:31:00,86.7,52.5,30.03,North,0,0.0,0.0,31,0.00,,FEW045,0.00,VWS V14.01,2013-10-12 17:31:00,
2013-10-12 13:32:00,86.7,52.5,30.03,North,0,0.0,0.0,31,0.00,,FEW045,0.00,VWS V14.01,2013-10-12 17:32:00,
2013-10-12 13:36:00,86.7,52.5,30.03,North,0,0.0,0.0,31,0.00,,FEW045,0.00,VWS V14.01,2013-10-12 17:36:00,
2013-10-12 13:37:00,86.7,52.5,30.03,North,0,0.0,0.0,31,0.00,,FEW045,0.00,VWS V14.01,2013-10-12 17:37:00,
2013-10-12 13:39:00,86.7,52.5,30.03,North,0,0.0,0.0,31,0.00,,FEW045,0.00,VWS V14.01,2013-10-12 17:39:00,
2013-10-12 13:40:00,86.7,52.5,30.03,North,0,0.0,0.0,31,0.00,,FEW045,0.00,VWS V14.01,2013-10-12 17:40:00,
2013-10-12 13:41:00,86.7,52.5,30.03,North,0,0.0,0.0,31,0.00,,FEW045,0.00,VWS V14.01,2013-10-12 17:41:00,
2013-10-12 13:42:00,86.7,52.5,30.03,North,0,0.0,0.0,31,0.00,,FEW045,0.00,VWS V14.01,2013-10-12 17:42:00,
2013-10-12 13:45:00,86.7,52.5,30.03,North,0,0.0,0.0,31,0.00,,FEW045,0.00,VWS V14.01,2013-10-12 17:45:00,
2013-10-12 13:46:00,86.7,52.5,30.03,North,0,0.0,0.0,31,0.00,,FEW045,0.00,VWS V14.01,2013-10-12 17:46:00,
2013-10-12 13:47:00,86.7,52.5,30.03,North,0,0.0,0.0,31,0.00,,FEW045,0.00,VWS V14.01,2013-10-12 17:47:00,
2013-10-12 13:48:00,86.7,52.5,30.03,North,0,0.0,0.0,31,0.00,,FEW045,0.00,VWS V14.01,2013-10-12 17:48:00,
2013-10-12 13:52:00,86.7,52.5,30.03,North,0,0.0,0.0,31,0.00,,FEW045,0.00,VWS V14.01,2013-10-12 17:52:00,
2013-10-12 13:53:00,86.7,52.5,30.03,North,0,0.0,0.0,31,0.00,,FEW045,0.00,VWS V14.01,2013-10-12 17:53:00,
2013-10-12 13:54:00,86.7,52.5,30.03,North,0,0.0,0.0,31,0.00,,FEW045,0.00,VWS V14.01,2013-10-12 17:54:00,
2013-10-12 13:59:00,86.7,52.5,30.00,North,0,0.0,0.0,31,0.00,,FEW045,0.00,VWS V14.01,2013-10-12 17:59:00,
2013-10-12 14:00:00,86.7,52.5,30.00,North,0,0.0,0.0,31,0.00,,FEW045,0.00,VWS V14.01,2013-10-12 18:00:00,
2013-10-12 14:01:00,86.7,52.5,30.00,North,0,0.0,0.0,31,0.00,,FEW045,0.00,VWS V14.01,2013-10-12 18:01:00,
2013-10-12 14:03:00,86.7,52.5,30.00,North,0,0.0,0.0,31,0.00,,FEW045,0.00,VWS V14.01,2013-10-12 18:03:00,
2013-10-12 14:04:00,86.7,52.5,30.00,North,0,0.0,0.0,31,0.00,,FEW045,0.00,VWS V14.01,2013-10-12 18:04:00,
2013-10-12 14:05:00,86.7,52.5,30.00,North,0,0.0,0.0,31,0.00,,FEW045,0.00,VWS V14.01,2013-10-12 18:05:00,
2013-10-12 14:07:00,86.7,52.5,30.00,North,0,0.0,0.0,31,0.00,,FEW045,0.00,VWS V14.01,2013-10-12 18:07:00,
2013-10-12 14:09:00,86.7,52.5,30.00,North,0,0.0,0.0,31,0.00,,FEW045,0.00,VWS V14.01,2013-10-12 18:09:00,
2013-10-12 14:11:00,86.7,52.5,30.00,North,0,0.0,0.0,31,0.00,,FEW045,0.00,VWS V14.01,2013-10-12 18:11:00,
2013-10-12 14:12:00,86.7,52.5,30.00,North,0,0.0,0.0,31,0.00,,FEW045,0.00,VWS V14.01,2013-10-12 18:12:00,
2013-10-12 14:13:00,86.7,52.5,30.00,North,0,0.0,0.0,31,0.00,,FEW045,0.00,VWS V14.01,2013-10-12 18:13:00,
2013-10-12 14:16:00,86.7,52.5,30.00,North,0,0.0,0.0,31,0.00,,FEW045,0.00,VWS V14.01,2013-10-12 18:16:00,
2013-10-12 14:17:00,86.7,52.5,30.00,North,0,0.0,0.0,31,0.00,,FEW045,0.00,VWS V14.01,2013-10-12 18:17:00,
2013-10-12 14:18:00,86.7,52.5,30.00,North,0,0.0,0.0,31,0.00,,FEW045,0.00,VWS V14.01,2013-10-12 18:18:00,
2013-10-12 14:19:00,86.7,52.5,30.00,North,0,0.0,0.0,31,0.00,,FEW045,0.00,VWS V14.01,2013-10-12 18:19:00,
2013-10-12 14:22:00,86.7,52.5,30.00,North,0,0.0,0.0,31,0.00,,FEW045,0.00,VWS V14.01,2013-10-12 18:22:00,
2013-10-12 14:23:00,86.7,52.5,30.00,North,0,0.0,0.0,31,0.00,,FEW045,0.00,VWS V14.01,2013-10-12 18:23:00,
2013-10-12 14:24:00,86.7,52.5,30.00,North,0,0.0,0.0,31,0.00,,FEW045,0.00,VWS V14.01,2013-10-12 18:24:00,
2013-10-12 14:25:00,86.7,52.5,30.00,North,0,0.0,0.0,31,0.00,,FEW045,0.00,VWS V14.01,2013-10-12 18:25:00,
2013-10-12 14:26:00,86.7,52.5,30.00,North,0,0.0,0.0,31,0.00,,FEW045,0.00,VWS V14.01,2013-10-12 18:26:00,
2013-10-12 14:28:00,86.7,52.5,30.00,North,0,0.0,0.0,31,0.00,,FEW045,0.00,VWS V14.01,2013-10-12 18:28:00,
2013-10-12 14:30:00,86.7,52.5,30.00,North,0,0.0,0.0,31,0.00,,FEW045,0.00,VWS V14.01,2013-10-12 18:30:00,
2013-10-12 14:32:00,86.7,52.5,30.00,North,0,0.0,0.0,31,0.00,,FEW045,0.00,VWS V14.01,2013-10-12 18:32:00,
2013-10-12 14:34:00,86.7,52.5,30.00,North,0,0.0,0.0,31,0.00,,FEW045,0.00,VWS V14.01,2013-10-12 18:34:00,
2013-10-12 14:35:00,86.7,52.5,30.00,North,0,0.0,0.0,31,0.00,,FEW045,0.00,VWS V14.01,2013-10-12 18:35:00,
2013-10-12 14:37:00,86.7,52.5,30.00,North,0,0.0,0.0,31,0.00,,FEW045,0.00,VWS V14.01,2013-10-12 18:37:00,
2013-10-12 14:39:00,86.7,52.5,30.00,North,0,0.0,0.0,31,0.00,,FEW045,0.00,VWS V14.01,2013-10-12 18:39:00,
2013-10-12 14:40:00,86.7,52.5,30.00,North,0,0.0,0.0,31,0.00,,FEW045,0.00,VWS V14.01,2013-10-12 18:40:00,
2013-10-12 14:42:00,86.7,52.5,30.00,North,0,0.0,0.0,31,0.00,,CLR,0.00,VWS V14.01,2013-10-12 18:42:00,
2013-10-12 14:44:00,86.7,52.5,30.00,North,0,0.0,0.0,31,0.00,,CLR,0.00,VWS V14.01,2013-10-12 18:44:00,
2013-10-12 14:46:00,86.7,52.5,30.00,North,0,0.0,0.0,31,0.00,,CLR,0.00,VWS V14.01,2013-10-12 18:46:00,
2013-10-12 14:47:00,86.7,52.5,30.00,North,0,0.0,0.0,31,0.00,,CLR,0.00,VWS V14.01,2013-10-12 18:47:00,
2013-10-12 14:48:00,86.7,52.5,30.00,North,0,0.0,0.0,31,0.00,,CLR,0.00,VWS V14.01,2013-10-12 18:48:00,
2013-10-12 14:51:00,86.7,52.5,30.00,North,0,0.0,0.0,31,0.00,,CLR,0.00,VWS V14.01,2013-10-12 18:51:00,
2013-10-12 14:52:00,86.7,52.5,30.00,North,0,0.0,0.0,31,0.00,,CLR,0.00,VWS V14.01,2013-10-12 18:52:00,
2013-10-12 14:53:00,86.7,52.5,30.00,North,0,0.0,0.0,31,0.00,,CLR,0.00,VWS V14.01,2013-10-12 18:53:00,
2013-10-12 14:54:00,86.7,52.5,30.00,North,0,0.0,0.0,31,0.00,,CLR,0.00,VWS V14.01,2013-10-12 18:54:00,
2013-10-12 14:55:00,86.7,52.5,30.00,North,0,0.0,0.0,31,0.00,,CLR,0.00,VWS V14.01,2013-10-12 18:55:00,
2013-10-12 14:58:00,86.7,52.5,30.00,North,0,0.0,0.0,31,0.00,,CLR,0.00,VWS V14.01,2013-10-12 18:58:00,
2013-10-12 14:59:00,86.7,52.5,30.00,North,0,0.0,0.0,31,0.00,,CLR,0.00,VWS V14.01,2013-10-12 18:59:00,
2013-10-12 15:01:00,86.7,52.5,30.00,North,0,0.0,0.0,31,0.00,,CLR,0.00,VWS V14.01,2013-10-12 19:01:00,
2013-10-12 15:02:00,86.7,52.5,30.00,North,0,0.0,0.0,31,0.00,,CLR,0.00,VWS V14.01,2013-10-12 19:02:00,
2013-10-12 15:03:00,86.7,52.5,30.00,North,0,0.0,0.0,31,0.00,,CLR,0.00,VWS V14.01,2013-10-12 19:03:00,
2013-10-12 15:05:00,86.7,52.5,30.00,North,0,0.0,0.0,31,0.00,,CLR,0.00,VWS V14.01,2013-10-12 19:05:00,
2013-10-12 15:06:00,86.7,52.5,30.00,North,0,0.0,0.0,31,0.00,,CLR,0.00,VWS V14.01,2013-10-12 19:06:00,
2013-10-12 15:08:00,86.7,52.5,30.00,North,0,0.0,0.0,31,0.00,,CLR,0.00,VWS V14.01,2013-10-12 19:08:00,
2013-10-12 15:09:00,86.7,52.5,30.00,North,0,0.0,0.0,31,0.00,,CLR,0.00,VWS V14.01,2013-10-12 19:09:00,
2013-10-12 15:10:00,86.7,52.5,30.00,North,0,0.0,0.0,31,0.00,,CLR,0.00,VWS V14.01,2013-10-12 19:10:00,
2013-10-12 15:12:00,86.7,52.5,30.00,North,0,0.0,0.0,31,0.00,,CLR,0.00,VWS V14.01,2013-10-12 19:12:00,
2013-10-12 15:13:00,86.7,52.5,30.00,North,0,0.0,0.0,31,0.00,,CLR,0.00,VWS V14.01,2013-10-12 19:13:00,
2013-10-12 15:14:00,86.7,52.5,30.00,North,0,0.0,0.0,31,0.00,,CLR,0.00,VWS V14.01,2013-10-12 19:14:00,
2013-10-12 15:19:00,86.7,52.5,30.00,North,0,0.0,0.0,31,0.00,,CLR,0.00,VWS V14.01,2013-10-12 19:19:00,
2013-10-12 15:21:00,86.7,52.5,30.00,North,0,0.0,0.0,31,0.00,,CLR,0.00,VWS V14.01,2013-10-12 19:21:00,
2013-10-12 15:23:00,86.7,52.5,30.00,North,0,0.0,0.0,31,0.00,,CLR,0.00,VWS V14.01,2013-10-12 19:23:00,
2013-10-12 15:24:00,86.7,52.5,30.00,North,0,0.0,0.0,31,0.00,,CLR,0.00,VWS V14.01,2013-10-12 19:24:00,
2013-10-12 15:25:00,86.7,52.5,30.00,North,0,0.0,0.0,31,0.00,,CLR,0.00,VWS V14.01,2013-10-12 19:25:00,
2013-10-12 15:27:00,86.9,51.8,30.00,North,0,0.0,0.0,30,0.00,,CLR,0.00,VWS V14.01,2013-10-12 19:27:00,
2013-10-12 15:29:00,86.7,51.6,30.00,North,0,0.0,0.0,30,0.00,,CLR,0.00,VWS V14.01,2013-10-12 19:29:00,
2013-10-12 15:30:00,86.7,51.6,30.00,North,0,0.0,0.0,30,0.00,,CLR,0.00,VWS V14.01,2013-10-12 19:30:00,
2013-10-12 15:33:00,86.9,51.8,30.00,North,0,0.0,0.0,30,0.00,,CLR,0.00,VWS V14.01,2013-10-12 19:33:00,
2013-10-12 15:34:00,86.9,51.8,30.00,North,0,0.0,0.0,30,0.00,,CLR,0.00,VWS V14.01,2013-10-12 19:34:00,
2013-10-12 15:37:00,87.1,52.8,30.00,North,0,0.0,0.0,31,0.00,,CLR,0.00,VWS V14.01,2013-10-12 19:37:00,
2013-10-12 15:38:00,87.1,52.8,30.00,North,0,0.0,0.0,31,0.00,,CLR,0.00,VWS V14.01,2013-10-12 19:38:00,
2013-10-12 15:41:00,87.1,52.8,30.00,North,0,0.0,0.0,31,0.00,,CLR,0.00,VWS V14.01,2013-10-12 19:41:00,
2013-10-12 15:42:00,87.1,52.8,30.00,North,0,0.0,0.0,31,0.00,,CLR,0.00,VWS V14.01,2013-10-12 19:42:00,
2013-10-12 15:44:00,87.1,52.8,30.00,North,0,0.0,0.0,31,0.00,,CLR,0.00,VWS V14.01,2013-10-12 19:44:00,
2013-10-12 15:45:00,87.1,52.8,30.00,North,0,0.0,0.0,31,0.00,,CLR,0.00,VWS V14.01,2013-10-12 19:45:00,
2013-10-12 15:47:00,87.1,52.8,30.00,North,0,0.0,0.0,31,0.00,,CLR,0.00,VWS V14.01,2013-10-12 19:47:00,
2013-10-12 15:50:00,87.1,53.7,30.00,North,0,0.0,0.0,32,0.00,,CLR,0.00,VWS V14.01,2013-10-12 19:50:00,
2013-10-12 15:51:00,87.1,52.8,30.00,North,0,0.0,0.0,31,0.00,,CLR,0.00,VWS V14.01,2013-10-12 19:51:00,
2013-10-12 15:52:00,87.1,52.8,30.00,North,0,0.0,0.0,31,0.00,,SCT045,0.00,VWS V14.01,2013-10-12 19:52:00,
2013-10-12 15:53:00,87.1,53.7,30.00,North,0,0.0,0.0,32,0.00,,SCT045,0.00,VWS V14.01,2013-10-12 19:53:00,
2013-10-12 15:55:00,87.1,53.7,30.00,North,0,0.0,0.0,32,0.00,,SCT045,0.00,VWS V14.01,2013-10-12 19:55:00,
2013-10-12 15:57:00,87.1,53.7,30.00,North,0,0.0,0.0,32,0.00,,SCT045,0.00,VWS V14.01,2013-10-12 19:57:00,
2013-10-12 15:59:00,87.1,53.7,30.00,North,0,0.0,0.0,32,0.00,,SCT045,0.00,VWS V14.01,2013-10-12 19:59:00,
2013-10-12 16:00:00,87.1,53.7,30.00,North,0,0.0,0.0,32,0.00,,SCT045,0.00,VWS V14.01,2013-10-12 20:00:00,
2013-10-12 16:02:00,87.1,53.7,30.00,North,0,0.0,0.0,32,0.00,,SCT045,0.00,VWS V14.01,2013-10-12 20:02:00,
2013-10-12 16:04:00,87.1,53.7,30.00,North,0,0.0,0.0,32,0.00,,SCT045,0.00,VWS V14.01,2013-10-12 20:04:00,
2013-10-12 16:05:00,87.1,53.7,30.00,North,0,0.0,0.0,32,0.00,,SCT045,0.00,VWS V14.01,2013-10-12 20:05:00,
2013-10-12 16:06:00,87.1,53.7,30.00,North,0,0.0,0.0,32,0.00,,SCT045,0.00,VWS V14.01,2013-10-12 20:06:00,
2013-10-12 16:07:00,87.1,53.7,30.00,North,0,0.0,0.0,32,0.00,,SCT045,0.00,VWS V14.01,2013-10-12 20:07:00,
2013-10-12 16:11:00,86.7,53.4,30.00,North,0,0.0,0.0,32,0.00,,SCT045,0.00,VWS V14.01,2013-10-12 20:11:00,
2013-10-12 16:12:00,86.5,53.2,30.00,North,0,0.0,0.0,32,0.00,,SCT045,0.00,VWS V14.01,2013-10-12 20:12:00,
2013-10-12 16:13:00,86.5,53.2,30.00,North,0,0.0,0.0,32,0.00,,SCT045,0.00,VWS V14.01,2013-10-12 20:13:00,
2013-10-12 16:16:00,86.5,53.2,30.00,North,0,0.0,0.0,32,0.00,,SCT045,0.00,VWS V14.01,2013-10-12 20:16:00,
2013-10-12 16:17:00,86.5,53.2,30.00,North,0,0.0,0.0,32,0.00,,SCT045,0.00,VWS V14.01,2013-10-12 20:17:00,
2013-10-12 16:20:00,86.5,53.2,30.00,North,0,0.0,0.0,32,0.00,,SCT045,0.00,VWS V14.01,2013-10-12 20:20:00,
2013-10-12 16:21:00,86.4,53.9,30.00,North,0,0.0,0.0,33,0.00,,SCT045,0.00,VWS V14.01,2013-10-12 20:21:00,
2013-10-12 16:22:00,86.4,53.9,30.00,North,0,0.0,0.0,33,0.00,,SCT045,0.00,VWS V14.01,2013-10-12 20:22:00,
2013-10-12 16:23:00,86.4,53.9,30.00,North,0,0.0,0.0,33,0.00,,SCT045,0.00,VWS V14.01,2013-10-12 20:23:00,
2013-10-12 16:26:00,86.4,53.9,30.00,North,0,0.0,0.0,33,0.00,,SCT045,0.00,VWS V14.01,2013-10-12 20:26:00,
2013-10-12 16:27:00,86.4,53.9,30.00,North,0,0.0,0.0,33,0.00,,SCT045,0.00,VWS V14.01,2013-10-12 20:27:00,
2013-10-12 16:28:00,86.4,53.9,30.00,North,0,0.0,0.0,33,0.00,,SCT045,0.00,VWS V14.01,2013-10-12 20:28:00,
2013-10-12 16:29:00,86.4,53.9,30.00,North,0,0.0,0.0,33,0.00,,SCT045,0.00,VWS V14.01,2013-10-12 20:29:00,
2013-10-12 16:32:00,86.4,53.9,30.00,North,0,0.0,0.0,33,0.00,,SCT045,0.00,VWS V14.01,2013-10-12 20:32:00,
2013-10-12 16:33:00,86.4,53.9,30.00,North,0,0.0,0.0,33,0.00,,SCT045,0.00,VWS V14.01,2013-10-12 20:33:00,
2013-10-12 16:35:00,86.4,53.9,30.00,North,0,0.0,0.0,33,0.00,,SCT045,0.00,VWS V14.01,2013-10-12 20:35:00,
2013-10-12 16:36:00,86.4,53.9,30.00,North,0,0.0,0.0,33,0.00,,SCT045,0.00,VWS V14.01,2013-10-12 20:36:00,
2013-10-12 16:37:00,86.4,53.9,30.00,North,0,0.0,0.0,33,0.00,,SCT045,0.00,VWS V14.01,2013-10-12 20:37:00,
2013-10-12 16:40:00,86.4,53.9,30.00,North,0,0.0,0.0,33,0.00,,SCT045,0.00,VWS V14.01,2013-10-12 20:40:00,
2013-10-12 16:43:00,86.4,53.9,30.00,North,0,0.0,0.0,33,0.00,,SCT045,0.00,VWS V14.01,2013-10-12 20:43:00,
2013-10-12 16:46:00,86.4,53.9,30.00,North,0,0.0,0.0,33,0.00,,SCT045,0.00,VWS V14.01,2013-10-12 20:46:00,
2013-10-12 16:47:00,86.4,53.9,30.00,North,0,0.0,0.0,33,0.00,,SCT045,0.00,VWS V14.01,2013-10-12 20:47:00,
2013-10-12 16:49:00,86.4,53.9,30.00,North,0,0.0,0.0,33,0.00,,SCT045,0.00,VWS V14.01,2013-10-12 20:49:00,
2013-10-12 16:50:00,86.4,53.9,30.00,North,0,0.0,0.0,33,0.00,,SCT045,0.00,VWS V14.01,2013-10-12 20:50:00,
2013-10-12 16:53:00,86.4,53.9,30.00,North,0,0.0,0.0,33,0.00,,SCT045,0.00,VWS V14.01,2013-10-12 20:53:00,
2013-10-12 16:54:00,86.4,53.9,30.00,North,0,0.0,0.0,33,0.00,,SCT045,0.00,VWS V14.01,2013-10-12 20:54:00,
2013-10-12 16:56:00,86.4,53.9,30.00,North,0,0.0,0.0,33,0.00,,SCT045,0.00,VWS V14.01,2013-10-12 20:56:00,
2013-10-12 16:59:00,86.4,53.9,30.00,North,0,0.0,0.0,33,0.00,,SCT045,0.00,VWS V14.01,2013-10-12 20:59:00,
2013-10-12 17:00:00,86.4,53.9,30.00,North,0,0.0,0.0,33,0.00,,SCT045,0.00,VWS V14.01,2013-10-12 21:00:00,
2013-10-12 17:03:00,86.4,53.9,30.00,North,0,0.0,0.0,33,0.00,,SCT045,0.00,VWS V14.01,2013-10-12 21:03:00,
2013-10-12 17:04:00,86.4,53.9,30.00,North,0,0.0,0.0,33,0.00,,SCT045,0.00,VWS V14.01,2013-10-12 21:04:00,
2013-10-12 17:06:00,86.4,53.9,30.00,North,0,0.0,0.0,33,0.00,,SCT045,0.00,VWS V14.01,2013-10-12 21:06:00,
2013-10-12 17:10:00,86.4,53.9,30.00,North,0,0.0,0.0,33,0.00,,SCT045,0.00,VWS V14.01,2013-10-12 21:10:00,
2013-10-12 17:13:00,86.4,53.9,30.00,North,0,0.0,0.0,33,0.00,,SCT045,0.00,VWS V14.01,2013-10-12 21:13:00,
2013-10-12 17:14:00,86.4,53.9,30.00,North,0,0.0,0.0,33,0.00,,SCT045,0.00,VWS V14.01,2013-10-12 21:14:00,
2013-10-12 17:15:00,86.4,53.9,30.00,North,0,0.0,0.0,33,0.00,,SCT045,0.00,VWS V14.01,2013-10-12 21:15:00,
2013-10-12 17:18:00,86.4,53.9,30.00,North,0,0.0,0.0,33,0.00,,SCT045,0.00,VWS V14.01,2013-10-12 21:18:00,
2013-10-12 17:20:00,86.4,53.9,30.00,North,0,0.0,0.0,33,0.00,,SCT045,0.00,VWS V14.01,2013-10-12 21:20:00,
2013-10-12 17:24:00,83.5,55.2,30.00,North,0,0.0,0.0,38,0.00,,SCT045,0.00,VWS V14.01,2013-10-12 21:24:00,
2013-10-12 17:25:00,83.1,55.6,30.00,North,0,0.0,0.0,39,0.00,,SCT045,0.00,VWS V14.01,2013-10-12 21:25:00,
2013-10-12 17:26:00,83.1,55.6,30.00,North,0,0.0,0.0,39,0.00,,SCT045,0.00,VWS V14.01,2013-10-12 21:26:00,
2013-10-12 17:27:00,83.1,55.6,30.00,North,0,0.0,0.0,39,0.00,,SCT045,0.00,VWS V14.01,2013-10-12 21:27:00,
2013-10-12 17:30:00,82.9,56.2,30.00,North,0,0.0,0.0,40,0.00,,SCT045,0.00,VWS V14.01,2013-10-12 21:30:00,
2013-10-12 17:32:00,82.9,56.2,30.00,North,0,0.0,0.0,40,0.00,,SCT045,0.00,VWS V14.01,2013-10-12 21:32:00,
2013-10-12 17:33:00,82.9,56.2,30.00,North,0,0.0,0.0,40,0.00,,SCT045,0.00,VWS V14.01,2013-10-12 21:33:00,
2013-10-12 17:37:00,83.1,55.6,30.00,North,0,0.0,0.0,39,0.00,,SCT045,0.00,VWS V14.01,2013-10-12 21:37:00,
2013-10-12 17:38:00,83.3,55.8,30.00,North,0,0.0,0.0,39,0.00,,SCT045,0.00,VWS V14.01,2013-10-12 21:38:00,
2013-10-12 17:39:00,83.3,55.8,30.00,North,0,0.0,0.0,39,0.00,,SCT045,0.00,VWS V14.01,2013-10-12 21:39:00,
2013-10-12 17:43:00,83.7,56.1,30.00,North,0,0.0,0.0,39,0.00,,SCT045,0.00,VWS V14.01,2013-10-12 21:43:00,
2013-10-12 17:44:00,83.7,56.8,30.00,North,0,0.0,0.0,40,0.00,,SCT045,0.00,VWS V14.01,2013-10-12 21:44:00,
2013-10-12 17:49:00,83.8,56.3,30.00,North,0,0.0,0.0,39,0.00,,SCT045,0.00,VWS V14.01,2013-10-12 21:49:00,
2013-10-12 17:50:00,83.8,56.3,30.00,North,0,0.0,0.0,39,0.00,,SCT045,0.00,VWS V14.01,2013-10-12 21:50:00,
2013-10-12 17:53:00,84.2,55.9,30.00,North,0,0.0,0.0,38,0.00,,SCT045,0.00,VWS V14.01,2013-10-12 21:53:00,
2013-10-12 17:55:00,84.2,55.1,30.00,North,0,0.0,0.0,37,0.00,,SCT045,0.00,VWS V14.01,2013-10-12 21:55:00,
2013-10-12 17:56:00,84.2,55.1,30.00,North,0,0.0,0.0,37,0.00,,SCT045,0.00,VWS V14.01,2013-10-12 21:56:00,
2013-10-12 17:58:00,84.2,55.1,30.00,North,0,0.0,0.0,37,0.00,,SCT045,0.00,VWS V14.01,2013-10-12 21:58:00,
2013-10-12 17:59:00,84.2,55.1,30.00,North,0,0.0,0.0,37,0.00,,SCT045,0.00,VWS V14.01,2013-10-12 21:59:00,
2013-10-12 18:01:00,84.2,55.9,30.00,North,0,0.0,0.0,38,0.00,,SCT045,0.00,VWS V14.01,2013-10-12 22:01:00,
2013-10-12 18:02:00,84.2,55.9,30.00,North,0,0.0,0.0,38,0.00,,SCT045,0.00,VWS V14.01,2013-10-12 22:02:00,
2013-10-12 18:03:00,84.2,55.9,30.00,North,0,0.0,0.0,38,0.00,,SCT045,0.00,VWS V14.01,2013-10-12 22:03:00,
2013-10-12 18:04:00,84.2,55.1,30.00,North,0,0.0,0.0,37,0.00,,SCT065,0.00,VWS V14.01,2013-10-12 22:04:00,
2013-10-12 18:05:00,84.2,55.9,30.00,North,0,0.0,0.0,38,0.00,,SCT065,0.00,VWS V14.01,2013-10-12 22:05:00,
2013-10-12 18:09:00,84.0,55.7,30.00,North,0,0.0,0.0,38,0.00,,SCT065,0.00,VWS V14.01,2013-10-12 22:09:00,
2013-10-12 18:10:00,84.0,55.7,30.00,North,0,0.0,0.0,38,0.00,,SCT065,0.00,VWS V14.01,2013-10-12 22:10:00,
2013-10-12 18:11:00,83.8,55.5,30.00,North,0,0.0,0.0,38,0.00,,SCT065,0.00,VWS V14.01,2013-10-12 22:11:00,
2013-10-12 18:12:00,83.8,55.5,30.00,North,0,0.0,0.0,38,0.00,,SCT065,0.00,VWS V14.01,2013-10-12 22:12:00,
2013-10-12 18:15:00,83.7,56.1,30.00,North,0,0.0,0.0,39,0.00,,SCT065,0.00,VWS V14.01,2013-10-12 22:15:00,
2013-10-12 18:17:00,83.7,55.4,30.00,North,0,0.0,0.0,38,0.00,,SCT065,0.00,VWS V14.01,2013-10-12 22:17:00,
2013-10-12 18:20:00,83.3,55.8,30.00,North,0,0.0,0.0,39,0.00,,SCT065,0.00,VWS V14.01,2013-10-12 22:20:00,
2013-10-12 18:21:00,83.1,55.6,30.00,North,0,0.0,0.0,39,0.00,,SCT065,0.00,VWS V14.01,2013-10-12 22:21:00,
2013-10-12 18:22:00,83.1,55.6,30.00,North,0,0.0,0.0,39,0.00,,SCT065,0.00,VWS V14.01,2013-10-12 22:22:00,
2013-10-12 18:23:00,83.1,55.6,30.00,North,0,0.0,0.0,39,0.00,,SCT065,0.00,VWS V14.01,2013-10-12 22:23:00,
2013-10-12 18:25:00,82.9,55.5,30.00,North,0,0.0,0.0,39,0.00,,SCT065,0.00,VWS V14.01,2013-10-12 22:25:00,
2013-10-12 18:28:00,82.9,55.5,30.00,North,0,0.0,0.0,39,0.00,,SCT065,0.00,VWS V14.01,2013-10-12 22:28:00,
2013-10-12 18:29:00,82.9,55.5,30.00,North,0,0.0,0.0,39,0.00,,SCT065,0.00,VWS V14.01,2013-10-12 22:29:00,
2013-10-12 18:30:00,82.9,55.5,30.00,North,0,0.0,0.0,39,0.00,,SCT065,0.00,VWS V14.01,2013-10-12 22:30:00,
2013-10-12 18:31:00,82.9,55.5,30.00,North,0,0.0,0.0,39,0.00,,SCT065,0.00,VWS V14.01,2013-10-12 22:31:00,
2013-10-12 18:32:00,82.9,55.5,30.00,North,0,0.0,0.0,39,0.00,,SCT065,0.00,VWS V14.01,2013-10-12 22:32:00,
2013-10-12 18:33:00,82.9,55.5,30.00,North,0,0.0,0.0,39,0.00,,SCT065,0.00,VWS V14.01,2013-10-12 22:33:00,
2013-10-12 18:34:00,82.9,55.5,30.00,North,0,0.0,0.0,39,0.00,,SCT065,0.00,VWS V14.01,2013-10-12 22:34:00,
2013-10-12 18:37:00,82.9,55.5,30.00,North,0,0.0,0.0,39,0.00,,SCT065,0.00,VWS V14.01,2013-10-12 22:37:00,
2013-10-12 18:38:00,82.9,55.5,30.00,North,0,0.0,0.0,39,0.00,,SCT065,0.00,VWS V14.01,2013-10-12 22:38:00,
2013-10-12 18:39:00,82.9,55.5,30.00,North,0,0.0,0.0,39,0.00,,SCT065,0.00,VWS V14.01,2013-10-12 22:39:00,
2013-10-12 18:40:00,82.9,55.5,30.00,North,0,0.0,0.0,39,0.00,,SCT065,0.00,VWS V14.01,2013-10-12 22:40:00,
2013-10-12 18:42:00,82.0,55.4,30.00,North,0,0.0,0.0,40,0.00,,SCT065,0.00,VWS V14.01,2013-10-12 22:42:00,
2013-10-12 18:44:00,82.0,56.0,30.00,North,0,0.0,0.0,41,0.00,,SCT065,0.00,VWS V14.01,2013-10-12 22:44:00,
2013-10-12 18:46:00,81.9,55.9,30.00,North,0,0.0,0.0,41,0.00,,SCT065,0.00,VWS V14.01,2013-10-12 22:46:00,
2013-10-12 18:47:00,81.7,55.7,30.00,North,0,0.0,0.0,41,0.00,,SCT065,0.00,VWS V14.01,2013-10-12 22:47:00,
2013-10-12 18:49:00,81.5,55.5,30.00,North,0,0.0,0.0,41,0.00,,SCT065,0.00,VWS V14.01,2013-10-12 22:49:00,
2013-10-12 18:52:00,81.3,55.4,30.00,North,0,0.0,0.0,41,0.00,,SCT065,0.00,VWS V14.01,2013-10-12 22:52:00,
2013-10-12 18:54:00,81.3,55.4,30.00,North,0,0.0,0.0,41,0.00,,SCT065,0.00,VWS V14.01,2013-10-12 22:54:00,
2013-10-12 18:55:00,81.3,56.1,30.00,North,0,0.0,0.0,42,0.00,,SCT065,0.00,VWS V14.01,2013-10-12 22:55:00,
2013-10-12 18:59:00,81.0,55.7,30.00,North,0,0.0,0.0,42,0.00,,SCT065,0.00,VWS V14.01,2013-10-12 22:59:00,
2013-10-12 19:00:00,81.0,55.7,30.00,North,0,0.0,0.0,42,0.00,,SCT065,0.00,VWS V14.01,2013-10-12 23:00:00,
2013-10-12 19:01:00,81.0,55.7,30.00,North,0,0.0,0.0,42,0.00,,SCT065,0.00,VWS V14.01,2013-10-12 23:01:00,
2013-10-12 19:02:00,81.0,56.4,30.00,North,0,0.0,0.0,43,0.00,,SCT065,0.00,VWS V14.01,2013-10-12 23:02:00,
2013-10-12 19:03:00,80.8,56.2,30.00,North,0,0.0,0.0,43,0.00,,SCT065,0.00,VWS V14.01,2013-10-12 23:03:00,
2013-10-12 19:07:00,80.8,56.2,30.00,North,0,0.0,0.0,43,0.00,,SCT065,0.00,VWS V14.01,2013-10-12 23:07:00,
2013-10-12 19:08:00,80.8,56.2,30.00,North,0,0.0,0.0,43,0.00,,SCT065,0.00,VWS V14.01,2013-10-12 23:08:00,
2013-10-12 19:09:00,80.6,56.1,30.00,North,0,0.0,0.0,43,0.00,,SCT065,0.00,VWS V14.01,2013-10-12 23:09:00,
2013-10-12 19:13:00,80.6,56.1,30.00,North,0,0.0,0.0,43,0.00,,SCT065,0.00,VWS V14.01,2013-10-12 23:13:00,
2013-10-12 19:15:00,80.6,56.1,30.00,North,0,0.0,0.0,43,0.00,,SCT065,0.00,VWS V14.01,2013-10-12 23:15:00,
2013-10-12 19:16:00,80.6,56.7,30.00,North,0,0.0,0.0,44,0.00,,SCT065,0.00,VWS V14.01,2013-10-12 23:16:00,
2013-10-12 19:20:00,80.4,56.5,30.00,North,0,0.0,0.0,44,0.00,,SCT065,0.00,VWS V14.01,2013-10-12 23:20:00,
2013-10-12 19:21:00,80.4,57.2,30.00,North,0,0.0,0.0,45,0.00,,SCT065,0.00,VWS V14.01,2013-10-12 23:21:00,
2013-10-12 19:23:00,80.4,57.2,30.00,North,0,0.0,0.0,45,0.00,,SCT065,0.00,VWS V14.01,2013-10-12 23:23:00,
2013-10-12 19:25:00,80.2,57.0,30.00,North,0,0.0,0.0,45,0.00,,SCT065,0.00,VWS V14.01,2013-10-12 23:25:00,
2013-10-12 19:26:00,80.2,57.0,30.00,North,0,0.0,0.0,45,0.00,,SCT065,0.00,VWS V14.01,2013-10-12 23:26:00,
2013-10-12 19:28:00,80.2,57.0,30.00,North,0,0.0,0.0,45,0.00,,SCT065,0.00,VWS V14.01,2013-10-12 23:28:00,
2013-10-12 19:29:00,80.2,57.0,30.00,North,0,0.0,0.0,45,0.00,,SCT065,0.00,VWS V14.01,2013-10-12 23:29:00,
2013-10-12 19:33:00,80.1,57.4,30.00,North,0,0.0,0.0,46,0.00,,SCT065,0.00,VWS V14.01,2013-10-12 23:33:00,
2013-10-12 19:34:00,80.1,57.4,30.00,North,0,0.0,0.0,46,0.00,,SCT065,0.00,VWS V14.01,2013-10-12 23:34:00,
2013-10-12 19:35:00,80.1,57.4,30.00,North,0,0.0,0.0,46,0.00,,SCT065,0.00,VWS V14.01,2013-10-12 23:35:00,
2013-10-12 19:39:00,80.1,57.4,30.00,North,0,0.0,0.0,46,0.00,,SCT065,0.00,VWS V14.01,2013-10-12 23:39:00,
2013-10-12 19:40:00,80.1,58.0,30.00,North,0,0.0,0.0,47,0.00,,SCT065,0.00,VWS V14.01,2013-10-12 23:40:00,
2013-10-12 19:42:00,80.1,58.0,30.00,North,0,0.0,0.0,47,0.00,,SCT065,0.00,VWS V14.01,2013-10-12 23:42:00,
2013-10-12 19:44:00,79.9,57.9,30.00,North,0,0.0,0.0,47,0.00,,SCT065,0.00,VWS V14.01,2013-10-12 23:44:00,
2013-10-12 19:45:00,79.9,57.9,30.00,North,0,0.0,0.0,47,0.00,,SCT065,0.00,VWS V14.01,2013-10-12 23:45:00,
2013-10-12 19:49:00,79.9,57.9,30.00,North,0,0.0,0.0,47,0.00,,SCT065,0.00,VWS V14.01,2013-10-12 23:49:00,
2013-10-12 19:51:00,79.9,57.9,30.00,North,0,0.0,0.0,47,0.00,,SCT065,0.00,VWS V14.01,2013-10-12 23:51:00,
2013-10-12 19:55:00,79.9,57.9,30.00,North,0,0.0,0.0,47,0.00,,SCT065,0.00,VWS V14.01,2013-10-12 23:55:00,
2013-10-12 19:56:00,79.9,57.9,30.00,North,0,0.0,0.0,47,0.00,,SCT065,0.00,VWS V14.01,2013-10-12 23:56:00,
2013-10-12 19:57:00,79.9,57.9,30.00,North,0,0.0,0.0,47,0.00,,SCT065,0.00,VWS V14.01,2013-10-12 23:57:00,
2013-10-12 19:58:00,79.9,57.9,30.00,North,0,0.0,0.0,47,0.00,,SCT065,0.00,VWS V14.01,2013-10-12 23:58:00,
2013-10-12 20:01:00,79.9,57.9,30.00,North,0,0.0,0.0,47,0.00,,SCT065,0.00,VWS V14.01,2013-10-13 00:01:00,
2013-10-12 20:02:00,79.9,57.9,30.00,North,0,0.0,0.0,47,0.00,,SCT065,0.00,VWS V14.01,2013-10-13 00:02:00,
2013-10-12 20:03:00,79.9,57.9,30.00,North,0,0.0,0.0,47,0.00,,SCT065,0.00,VWS V14.01,2013-10-13 00:03:00,
2013-10-12 20:04:00,79.9,57.9,30.00,North,0,0.0,0.0,47,0.00,,SCT065,0.00,VWS V14.01,2013-10-13 00:04:00,
2013-10-12 20:05:00,79.9,57.9,30.00,North,0,0.0,0.0,47,0.00,,SCT065,0.00,VWS V14.01,2013-10-13 00:05:00,
2013-10-12 20:07:00,79.9,57.9,30.00,North,0,0.0,0.0,47,0.00,,SCT065,0.00,VWS V14.01,2013-10-13 00:07:00,
2013-10-12 20:09:00,79.9,57.9,30.00,North,0,0.0,0.0,47,0.00,,SCT065,0.00,VWS V14.01,2013-10-13 00:09:00,
2013-10-12 20:11:00,79.9,57.9,30.00,North,0,0.0,0.0,47,0.00,,SCT065,0.00,VWS V14.01,2013-10-13 00:11:00,
2013-10-12 20:12:00,79.9,57.9,30.00,North,0,0.0,0.0,47,0.00,,SCT065,0.00,VWS V14.01,2013-10-13 00:12:00,
2013-10-12 20:13:00,79.9,57.9,30.00,North,0,0.0,0.0,47,0.00,,SCT065,0.00,VWS V14.01,2013-10-13 00:13:00,
2013-10-12 20:15:00,79.9,57.9,30.03,North,0,0.0,0.0,47,0.00,,SCT065,0.00,VWS V14.01,2013-10-13 00:15:00,
2013-10-12 20:17:00,79.9,57.9,30.03,North,0,0.0,0.0,47,0.00,,SCT065,0.00,VWS V14.01,2013-10-13 00:17:00,
2013-10-12 20:18:00,79.9,57.9,30.03,North,0,0.0,0.0,47,0.00,,SCT065,0.00,VWS V14.01,2013-10-13 00:18:00,
2013-10-12 20:19:00,79.9,57.9,30.03,North,0,0.0,0.0,47,0.00,,SCT065,0.00,VWS V14.01,2013-10-13 00:19:00,
2013-10-12 20:20:00,79.9,57.9,30.03,North,0,0.0,0.0,47,0.00,,SCT065,0.00,VWS V14.01,2013-10-13 00:20:00,
2013-10-12 20:21:00,79.9,57.9,30.03,North,0,0.0,0.0,47,0.00,,SCT065,0.00,VWS V14.01,2013-10-13 00:21:00,
2013-10-12 20:25:00,79.9,57.9,30.03,North,0,0.0,0.0,47,0.00,,SCT065,0.00,VWS V14.01,2013-10-13 00:25:00,
2013-10-12 20:27:00,79.9,57.9,30.03,North,0,0.0,0.0,47,0.00,,SCT065,0.00,VWS V14.01,2013-10-13 00:27:00,
2013-10-12 20:28:00,79.9,57.9,30.03,North,0,0.0,0.0,47,0.00,,SCT065,0.00,VWS V14.01,2013-10-13 00:28:00,
2013-10-12 20:30:00,79.9,57.9,30.03,North,0,0.0,0.0,47,0.00,,SCT065,0.00,VWS V14.01,2013-10-13 00:30:00,
2013-10-12 20:32:00,79.9,57.9,30.03,North,0,0.0,0.0,47,0.00,,SCT065,0.00,VWS V14.01,2013-10-13 00:32:00,
2013-10-12 20:33:00,79.9,57.9,30.03,North,0,0.0,0.0,47,0.00,,SCT065,0.00,VWS V14.01,2013-10-13 00:33:00,
2013-10-12 20:37:00,79.9,57.9,30.03,North,0,0.0,0.0,47,0.00,,SCT065,0.00,VWS V14.01,2013-10-13 00:37:00,
2013-10-12 20:38:00,79.9,57.9,30.03,North,0,0.0,0.0,47,0.00,,SCT065,0.00,VWS V14.01,2013-10-13 00:38:00,
2013-10-12 20:42:00,79.9,57.9,30.03,North,0,0.0,0.0,47,0.00,,CLR,0.00,VWS V14.01,2013-10-13 00:42:00,
2013-10-12 20:44:00,79.9,57.9,30.03,North,0,0.0,0.0,47,0.00,,CLR,0.00,VWS V14.01,2013-10-13 00:44:00,
2013-10-12 20:45:00,79.9,57.9,30.03,North,0,0.0,0.0,47,0.00,,CLR,0.00,VWS V14.01,2013-10-13 00:45:00,
2013-10-12 20:48:00,79.9,57.9,30.03,North,0,0.0,0.0,47,0.00,,CLR,0.00,VWS V14.01,2013-10-13 00:48:00,
2013-10-12 20:49:00,78.4,62.0,30.03,North,0,0.0,0.0,57,0.00,,CLR,0.00,VWS V14.01,2013-10-13 00:49:00,
2013-10-12 20:50:00,78.4,62.0,30.03,North,0,0.0,0.0,57,0.00,,CLR,0.00,VWS V14.01,2013-10-13 00:50:00,
2013-10-12 20:52:00,78.4,62.0,30.03,North,0,0.0,0.0,57,0.00,,CLR,0.00,VWS V14.01,2013-10-13 00:52:00,
2013-10-12 20:53:00,78.4,62.0,30.03,North,0,0.0,0.0,57,0.00,,CLR,0.00,VWS V14.01,2013-10-13 00:53:00,
2013-10-12 20:56:00,78.4,62.0,30.03,North,0,0.0,0.0,57,0.00,,CLR,0.00,VWS V14.01,2013-10-13 00:56:00,
2013-10-12 20:57:00,78.4,62.0,30.03,North,0,0.0,0.0,57,0.00,,CLR,0.00,VWS V14.01,2013-10-13 00:57:00,
2013-10-12 20:59:00,78.4,62.0,30.03,North,0,0.0,0.0,57,0.00,,CLR,0.00,VWS V14.01,2013-10-13 00:59:00,
2013-10-12 21:03:00,78.4,62.0,30.03,North,0,0.0,0.0,57,0.00,,FEW055,0.00,VWS V14.01,2013-10-13 01:03:00,
2013-10-12 21:04:00,78.4,62.0,30.03,North,0,0.0,0.0,57,0.00,,FEW055,0.00,VWS V14.01,2013-10-13 01:04:00,
2013-10-12 21:05:00,78.4,62.0,30.03,North,0,0.0,0.0,57,0.00,,FEW055,0.00,VWS V14.01,2013-10-13 01:05:00,
2013-10-12 21:09:00,78.4,62.0,30.03,North,0,0.0,0.0,57,0.00,,FEW055,0.00,VWS V14.01,2013-10-13 01:09:00,
2013-10-12 21:10:00,78.4,62.0,30.03,North,0,0.0,0.0,57,0.00,,FEW055,0.00,VWS V14.01,2013-10-13 01:10:00,
2013-10-12 21:11:00,78.4,62.0,30.03,North,0,0.0,0.0,57,0.00,,FEW055,0.00,VWS V14.01,2013-10-13 01:11:00,
2013-10-12 21:15:00,78.4,62.0,30.03,North,0,0.0,0.0,57,0.00,,FEW055,0.00,VWS V14.01,2013-10-13 01:15:00,
2013-10-12 21:16:00,78.4,62.0,30.03,North,0,0.0,0.0,57,0.00,,FEW055,0.00,VWS V14.01,2013-10-13 01:16:00,
2013-10-12 21:17:00,78.4,62.0,30.03,North,0,0.0,0.0,57,0.00,,FEW055,0.00,VWS V14.01,2013-10-13 01:17:00,
2013-10-12 21:18:00,78.4,62.0,30.03,North,0,0.0,0.0,57,0.00,,FEW055,0.00,VWS V14.01,2013-10-13 01:18:00,
2013-10-12 21:20:00,78.4,62.0,30.03,North,0,0.0,0.0,57,0.00,,FEW055,0.00,VWS V14.01,2013-10-13 01:20:00,
2013-10-12 21:21:00,78.4,62.0,30.03,North,0,0.0,0.0,57,0.00,,FEW055,0.00,VWS V14.01,2013-10-13 01:21:00,
2013-10-12 21:22:00,78.4,62.0,30.03,North,0,0.0,0.0,57,0.00,,FEW055,0.00,VWS V14.01,2013-10-13 01:22:00,
2013-10-12 21:24:00,78.4,62.0,30.03,North,0,0.0,0.0,57,0.00,,FEW055,0.00,VWS V14.01,2013-10-13 01:24:00,
2013-10-12 21:25:00,78.4,62.0,30.03,North,0,0.0,0.0,57,0.00,,FEW055,0.00,VWS V14.01,2013-10-13 01:25:00,
2013-10-12 21:26:00,78.4,62.0,30.03,North,0,0.0,0.0,57,0.00,,FEW055,0.00,VWS V14.01,2013-10-13 01:26:00,
2013-10-12 21:27:00,78.4,62.0,30.03,North,0,0.0,0.0,57,0.00,,FEW055,0.00,VWS V14.01,2013-10-13 01:27:00,
2013-10-12 21:32:00,77.2,62.2,30.03,North,0,0.0,0.0,60,0.00,,FEW055,0.00,VWS V14.01,2013-10-13 01:32:00,
2013-10-12 21:33:00,77.0,62.1,30.03,North,0,0.0,0.0,60,0.00,,FEW055,0.00,VWS V14.01,2013-10-13 01:33:00,
2013-10-12 21:35:00,77.0,62.1,30.03,North,0,0.0,0.0,60,0.00,,FEW055,0.00,VWS V14.01,2013-10-13 01:35:00,
2013-10-12 21:37:00,77.0,62.5,30.03,North,0,0.0,0.0,61,0.00,,FEW055,0.00,VWS V14.01,2013-10-13 01:37:00,
2013-10-12 21:38:00,77.0,62.5,30.03,North,0,0.0,0.0,61,0.00,,FEW055,0.00,VWS V14.01,2013-10-13 01:38:00,
2013-10-12 21:40:00,77.0,62.5,30.03,North,0,0.0,0.0,61,0.00,,FEW055,0.00,VWS V14.01,2013-10-13 01:40:00,
2013-10-12 21:42:00,77.2,62.7,30.03,North,0,0.0,0.0,61,0.00,,FEW055,0.00,VWS V14.01,2013-10-13 01:42:00,
2013-10-12 21:45:00,77.2,62.7,30.03,North,0,0.0,0.0,61,0.00,,FEW055,0.00,VWS V14.01,2013-10-13 01:45:00,
2013-10-12 21:48:00,77.2,62.7,30.03,North,0,0.0,0.0,61,0.00,,FEW055,0.00,VWS V14.01,2013-10-13 01:48:00,
2013-10-12 21:49:00,77.2,62.7,30.03,North,0,0.0,0.0,61,0.00,,FEW055,0.00,VWS V14.01,2013-10-13 01:49:00,
2013-10-12 21:51:00,77.2,62.2,30.03,North,0,0.0,0.0,60,0.00,,FEW055,0.00,VWS V14.01,2013-10-13 01:51:00,
2013-10-12 21:54:00,77.2,62.2,30.03,North,0,0.0,0.0,60,0.00,,FEW055,0.00,VWS V14.01,2013-10-13 01:54:00,
2013-10-12 21:55:00,77.2,61.8,30.03,North,0,0.0,0.0,59,0.00,,FEW055,0.00,VWS V14.01,2013-10-13 01:55:00,
2013-10-12 21:56:00,77.2,61.3,30.03,North,0,0.0,0.0,58,0.00,,FEW055,0.00,VWS V14.01,2013-10-13 01:56:00,
2013-10-12 21:57:00,77.2,61.3,30.03,North,0,0.0,0.0,58,0.00,,FEW055,0.00,VWS V14.01,2013-10-13 01:57:00,
2013-10-12 21:59:00,77.2,61.3,30.03,North,0,0.0,0.0,58,0.00,,FEW055,0.00,VWS V14.01,2013-10-13 01:59:00,
2013-10-12 22:02:00,77.4,61.0,30.03,North,0,0.0,0.0,57,0.00,,FEW055,0.00,VWS V14.01,2013-10-13 02:02:00,
2013-10-12 22:03:00,77.4,61.0,30.03,North,0,0.0,0.0,57,0.00,,FEW055,0.00,VWS V14.01,2013-10-13 02:03:00,
2013-10-12 22:05:00,77.4,61.0,30.03,North,0,0.0,0.0,57,0.00,,FEW055,0.00,VWS V14.01,2013-10-13 02:05:00,
2013-10-12 22:06:00,77.4,60.0,30.03,North,0,0.0,0.0,55,0.00,,FEW055,0.00,VWS V14.01,2013-10-13 02:06:00,
2013-10-12 22:07:00,77.4,60.0,30.03,North,0,0.0,0.0,55,0.00,,FEW055,0.00,VWS V14.01,2013-10-13 02:07:00,
2013-10-12 22:08:00,77.4,60.0,30.03,North,0,0.0,0.0,55,0.00,,FEW055,0.00,VWS V14.01,2013-10-13 02:08:00,
2013-10-12 22:10:00,77.5,59.6,30.03,North,0,0.0,0.0,54,0.00,,FEW055,0.00,VWS V14.01,2013-10-13 02:10:00,
2013-10-12 22:11:00,77.5,59.6,30.03,North,0,0.0,0.0,54,0.00,,FEW055,0.00,VWS V14.01,2013-10-13 02:11:00,
2013-10-12 22:13:00,77.5,59.6,30.03,North,0,0.0,0.0,54,0.00,,FEW055,0.00,VWS V14.01,2013-10-13 02:13:00,
2013-10-12 22:15:00,77.5,59.6,30.06,North,0,0.0,0.0,54,0.00,,FEW055,0.00,VWS V14.01,2013-10-13 02:15:00,
2013-10-12 22:17:00,77.7,59.2,30.06,North,0,0.0,0.0,53,0.00,,FEW055,0.00,VWS V14.01,2013-10-13 02:17:00,
2013-10-12 22:18:00,77.7,59.2,30.06,North,0,0.0,0.0,53,0.00,,FEW055,0.00,VWS V14.01,2013-10-13 02:18:00,
2013-10-12 22:19:00,77.7,59.2,30.06,North,0,0.0,0.0,53,0.00,,FEW055,0.00,VWS V14.01,2013-10-13 02:19:00,
2013-10-12 22:20:00,77.7,59.2,30.06,North,0,0.0,0.0,53,0.00,,FEW055,0.00,VWS V14.01,2013-10-13 02:20:00,
2013-10-12 22:22:00,77.7,58.7,30.06,North,0,0.0,0.0,52,0.00,,FEW055,0.00,VWS V14.01,2013-10-13 02:22:00,
2013-10-12 22:23:00,77.7,58.7,30.06,North,0,0.0,0.0,52,0.00,,FEW055,0.00,VWS V14.01,2013-10-13 02:23:00,
2013-10-12 22:24:00,77.7,58.7,30.06,North,0,0.0,0.0,52,0.00,,FEW055,0.00,VWS V14.01,2013-10-13 02:24:00,
2013-10-12 22:25:00,77.9,58.9,30.06,North,0,0.0,0.0,52,0.00,,FEW055,0.00,VWS V14.01,2013-10-13 02:25:00,
2013-10-12 22:26:00,77.9,58.9,30.06,North,0,0.0,0.0,52,0.00,,FEW055,0.00,VWS V14.01,2013-10-13 02:26:00,
2013-10-12 22:28:00,77.9,58.9,30.06,North,0,0.0,0.0,52,0.00,,FEW055,0.00,VWS V14.01,2013-10-13 02:28:00,
2013-10-12 22:32:00,77.9,58.9,30.06,North,0,0.0,0.0,52,0.00,,FEW055,0.00,VWS V14.01,2013-10-13 02:32:00,
2013-10-12 22:33:00,77.9,58.9,30.06,North,0,0.0,0.0,52,0.00,,FEW055,0.00,VWS V14.01,2013-10-13 02:33:00,
2013-10-12 22:35:00,77.9,58.9,30.06,North,0,0.0,0.0,52,0.00,,FEW055,0.00,VWS V14.01,2013-10-13 02:35:00,
2013-10-12 22:36:00,77.9,58.9,30.06,North,0,0.0,0.0,52,0.00,,FEW055,0.00,VWS V14.01,2013-10-13 02:36:00,
2013-10-12 22:37:00,77.9,58.9,30.06,North,0,0.0,0.0,52,0.00,,FEW055,0.00,VWS V14.01,2013-10-13 02:37:00,
2013-10-12 22:38:00,77.9,58.9,30.06,North,0,0.0,0.0,52,0.00,,FEW055,0.00,VWS V14.01,2013-10-13 02:38:00,
2013-10-12 22:39:00,77.9,58.9,30.06,North,0,0.0,0.0,52,0.00,,FEW055,0.00,VWS V14.01,2013-10-13 02:39:00,
2013-10-12 22:41:00,77.9,59.4,30.06,North,0,0.0,0.0,53,0.00,,FEW055,0.00,VWS V14.01,2013-10-13 02:41:00,
2013-10-12 22:42:00,77.9,59.4,30.06,North,0,0.0,0.0,53,0.00,,FEW055,0.00,VWS V14.01,2013-10-13 02:42:00,
2013-10-12 22:43:00,77.9,59.4,30.06,North,0,0.0,0.0,53,0.00,,FEW055,0.00,VWS V14.01,2013-10-13 02:43:00,
2013-10-12 22:44:00,77.9,59.4,30.06,North,0,0.0,0.0,53,0.00,,FEW055,0.00,VWS V14.01,2013-10-13 02:44:00,
2013-10-12 22:47:00,77.7,59.8,30.06,North,0,0.0,0.0,54,0.00,,FEW055,0.00,VWS V14.01,2013-10-13 02:47:00,
2013-10-12 22:48:00,77.7,59.8,30.06,North,0,0.0,0.0,54,0.00,,FEW055,0.00,VWS V14.01,2013-10-13 02:48:00,
2013-10-12 22:49:00,77.7,59.8,30.06,North,0,0.0,0.0,54,0.00,,FEW055,0.00,VWS V14.01,2013-10-13 02:49:00,
2013-10-12 22:52:00,77.5,60.1,30.06,North,0,0.0,0.0,55,0.00,,FEW055,0.00,VWS V14.01,2013-10-13 02:52:00,
2013-10-12 22:53:00,77.5,60.1,30.06,North,0,0.0,0.0,55,0.00,,FEW055,0.00,VWS V14.01,2013-10-13 02:53:00,
2013-10-12 22:56:00,77.5,60.1,30.06,North,0,0.0,0.0,55,0.00,,FEW055,0.00,VWS V14.01,2013-10-13 02:56:00,
2013-10-12 22:57:00,77.4,60.5,30.06,North,0,0.0,0.0,56,0.00,,FEW055,0.00,VWS V14.01,2013-10-13 02:57:00,
2013-10-12 22:59:00,77.4,61.0,30.06,North,0,0.0,0.0,57,0.00,,FEW055,0.00,VWS V14.01,2013-10-13 02:59:00,
2013-10-12 23:01:00,77.2,60.8,30.06,North,0,0.0,0.0,57,0.00,,FEW055,0.00,VWS V14.01,2013-10-13 03:01:00,
2013-10-12 23:03:00,77.2,60.8,30.06,North,0,0.0,0.0,57,0.00,,FEW055,0.00,VWS V14.01,2013-10-13 03:03:00,
2013-10-12 23:04:00,77.2,60.8,30.06,North,0,0.0,0.0,57,0.00,,FEW055,0.00,VWS V14.01,2013-10-13 03:04:00,
2013-10-12 23:05:00,77.0,61.1,30.06,North,0,0.0,0.0,58,0.00,,FEW055,0.00,VWS V14.01,2013-10-13 03:05:00,
2013-10-12 23:06:00,77.0,61.1,30.06,North,0,0.0,0.0,58,0.00,,FEW055,0.00,VWS V14.01,2013-10-13 03:06:00,
2013-10-12 23:10:00,76.8,61.4,30.06,North,0,0.0,0.0,59,0.00,,FEW055,0.00,VWS V14.01,2013-10-13 03:10:00,
2013-10-12 23:11:00,76.8,60.9,30.06,North,0,0.0,0.0,58,0.00,,FEW055,0.00,VWS V14.01,2013-10-13 03:11:00,
2013-10-12 23:12:00,76.8,60.9,30.06,North,0,0.0,0.0,58,0.00,,FEW055,0.00,VWS V14.01,2013-10-13 03:12:00,
2013-10-12 23:13:00,76.8,60.9,30.06,North,0,0.0,0.0,58,0.00,,FEW055,0.00,VWS V14.01,2013-10-13 03:13:00,
2013-10-12 23:15:00,76.8,60.9,30.06,North,0,0.0,0.0,58,0.00,,FEW055,0.00,VWS V14.01,2013-10-13 03:15:00,
2013-10-12 23:16:00,76.8,60.9,30.06,North,0,0.0,0.0,58,0.00,,FEW055,0.00,VWS V14.01,2013-10-13 03:16:00,
2013-10-12 23:18:00,76.6,60.3,30.06,North,0,0.0,0.0,57,0.00,,FEW055,0.00,VWS V14.01,2013-10-13 03:18:00,
2013-10-12 23:21:00,76.6,60.3,30.06,North,0,0.0,0.0,57,0.00,,FEW055,0.00,VWS V14.01,2013-10-13 03:21:00,
2013-10-12 23:22:00,76.6,60.3,30.06,North,0,0.0,0.0,57,0.00,,FEW055,0.00,VWS V14.01,2013-10-13 03:22:00,
2013-10-12 23:26:00,76.8,60.0,30.06,North,0,0.0,0.0,56,0.00,,FEW055,0.00,VWS V14.01,2013-10-13 03:26:00,
2013-10-12 23:27:00,76.8,60.0,30.06,North,0,0.0,0.0,56,0.00,,FEW055,0.00,VWS V14.01,2013-10-13 03:27:00,
2013-10-12 23:28:00,76.8,59.5,30.06,North,0,0.0,0.0,55,0.00,,FEW055,0.00,VWS V14.01,2013-10-13 03:28:00,
2013-10-12 23:30:00,76.8,59.5,30.03,North,0,0.0,0.0,55,0.00,,FEW055,0.00,VWS V14.01,2013-10-13 03:30:00,
2013-10-12 23:33:00,76.8,59.5,30.03,North,0,0.0,0.0,55,0.00,,FEW055,0.00,VWS V14.01,2013-10-13 03:33:00,
2013-10-12 23:35:00,76.8,59.5,30.03,North,0,0.0,0.0,55,0.00,,FEW055,0.00,VWS V14.01,2013-10-13 03:35:00,
2013-10-12 23:36:00,76.8,59.5,30.03,North,0,0.0,0.0,55,0.00,,FEW055,0.00,VWS V14.01,2013-10-13 03:36:00,
2013-10-12 23:38:00,77.0,59.1,30.03,North,0,0.0,0.0,54,0.00,,FEW055,0.00,VWS V14.01,2013-10-13 03:38:00,
2013-10-12 23:39:00,77.0,59.1,30.03,North,0,0.0,0.0,54,0.00,,FEW055,0.00,VWS V14.01,2013-10-13 03:39:00,
2013-10-12 23:40:00,77.0,59.1,30.03,North,0,0.0,0.0,54,0.00,,FEW055,0.00,VWS V14.01,2013-10-13 03:40:00,
2013-10-12 23:41:00,77.0,59.1,30.03,North,0,0.0,0.0,54,0.00,,FEW055,0.00,VWS V14.01,2013-10-13 03:41:00,
2013-10-12 23:44:00,77.0,59.1,30.03,North,0,0.0,0.0,54,0.00,,FEW055,0.00,VWS V14.01,2013-10-13 03:44:00,
2013-10-12 23:46:00,77.0,59.1,30.03,North,0,0.0,0.0,54,0.00,,FEW055,0.00,VWS V14.01,2013-10-13 03:46:00,
2013-10-12 23:47:00,77.0,59.1,30.03,North,0,0.0,0.0,54,0.00,,FEW055,0.00,VWS V14.01,2013-10-13 03:47:00,
2013-10-12 23:49:00,77.0,59.1,30.03,North,0,0.0,0.0,54,0.00,,FEW055,0.00,VWS V14.01,2013-10-13 03:49:00,
2013-10-12 23:51:00,77.0,59.1,30.03,North,0,0.0,0.0,54,0.00,,FEW055,0.00,VWS V14.01,2013-10-13 03:51:00,
2013-10-12 23:53:00,77.0,59.6,30.03,North,0,0.0,0.0,55,0.00,,FEW055,0.00,VWS V14.01,2013-10-13 03:53:00,
2013-10-12 23:54:00,77.0,59.6,30.03,North,0,0.0,0.0,55,0.00,,FEW055,0.00,VWS V14.01,2013-10-13 03:54:00,
2013-10-12 23:56:00,77.0,59.6,30.03,North,0,0.0,0.0,55,0.00,,FEW055,0.00,VWS V14.01,2013-10-13 03:56:00,
2013-10-12 23:58:00,77.0,59.6,30.03,North,0,0.0,0.0,55,0.00,,FEW055,0.00,VWS V14.01,2013-10-13 03:58:00,
2013-10-12 23:59:00,77.0,59.6,30.03,North,0,0.0,0.0,55,0.00,,FEW055,0.00,VWS V14.01,2013-10-13 03:59:00,